Observation data for Guadalupe Mtns Park on 12/13/2019      Previous  Date       Current Mesonet Observations  Soil Data  Daily Summary Page  Observations in Plain Language
KGU1 130600Z 19005KT 08/01 A3016 RMK A01 T00820007  RH  060%=      5-min Rain = 0
KGU1 130601Z 21003KT 08/02 A3016 RMK A01 T00760016  RH  067%=      5-min Rain = 0
KGU1 130602Z 20001KT 07/01 A3015 RMK A01 T00720013  RH  067%=      5-min Rain = 0
KGU1 130603Z 28002KT 07/01 A3016 RMK A01 T00730008  RH  064%=      5-min Rain = 0
KGU1 130604Z 20004KT 08/00 A3016 RMK A01 T00770002  RH  060%=      5-min Rain = 0
KGU1 130605Z 19005G12KT 08/01 A3015 RMK A01 T00790009  RH  062%=      5-min Rain = 0
KGU1 130606Z 13000KT 08/02 A3015 RMK A01 T00760015  RH  066%=      5-min Rain = 0
KGU1 130607Z 13001KT 07/02 A3015 RMK A01 T00730016  RH  068%=      5-min Rain = 0
KGU1 130608Z 16003KT 07/01 A3015 RMK A01 T00720014  RH  067%=      5-min Rain = 0
KGU1 130609Z 06003G8KT 07/01 A3015 RMK A01 T00720013  RH  067%=      5-min Rain = 0
KGU1 130610Z 35003KT 08/01 A3015 RMK A01 T00760008  RH  063%=      5-min Rain = 0
KGU1 130611Z 35005KT 08/00 A3015 RMK A01 T00820003  RH  058%=      5-min Rain = 0
KGU1 130612Z 35003KT 09/00 A3016 RMK A01 T00860004  RH  057%=      5-min Rain = 0
KGU1 130613Z 00002KT 09/01 A3016 RMK A01 T00860006  RH  058%=      5-min Rain = 0
KGU1 130614Z 30003KT 08/01 A3016 RMK A01 T00840007  RH  059%=      5-min Rain = 0
KGU1 130615Z 27004G9KT 08/00 A3016 RMK A01 T00840004  RH  058%=      5-min Rain = 0
KGU1 130616Z 30002KT 09/M01 A3016 RMK A01 T00871007  RH  052%=      5-min Rain = 0
KGU1 130617Z 28001KT 09/M01 A3016 RMK A01 T00911009  RH  050%=      5-min Rain = 0
KGU1 130618Z 02002KT 09/00 A3016 RMK A01 T00920000  RH  053%=      5-min Rain = 0
KGU1 130619Z 02001KT 09/01 A3016 RMK A01 T00860006  RH  058%=      5-min Rain = 0
KGU1 130620Z 13000KT 08/01 A3016 RMK A01 T00820008  RH  060%=      5-min Rain = 0
KGU1 130621Z 15003KT 08/01 A3016 RMK A01 T00800008  RH  061%=      5-min Rain = 0
KGU1 130622Z 18004KT 08/01 A3015 RMK A01 T00780008  RH  062%=      5-min Rain = 0
KGU1 130623Z 17006KT 08/01 A3015 RMK A01 T00760013  RH  065%=      5-min Rain = 0
KGU1 130624Z 15003KT 07/01 A3016 RMK A01 T00720014  RH  068%=      5-min Rain = 0
KGU1 130625Z 16005KT 07/02 A3015 RMK A01 T00700015  RH  069%=      5-min Rain = 0
KGU1 130626Z 17002KT 07/01 A3015 RMK A01 T00700014  RH  068%=      5-min Rain = 0
KGU1 130627Z 22002KT 07/01 A3015 RMK A01 T00700011  RH  067%=      5-min Rain = 0
KGU1 130628Z 19006KT 07/01 A3016 RMK A01 T00710009  RH  066%=      5-min Rain = 0
KGU1 130629Z 19009KT 07/02 A3015 RMK A01 T00690015  RH  069%=      5-min Rain = 0
KGU1 130630Z 19013KT 07/02 A3015 RMK A01 T00690016  RH  070%=      5-min Rain = 0
KGU1 130631Z 19011KT 07/02 A3015 RMK A01 T00650018  RH  073%=      5-min Rain = 0
KGU1 130632Z 19015KT 06/02 A3015 RMK A01 T00600020  RH  077%=      5-min Rain = 0
KGU1 130633Z 20012G18KT 06/02 A3015 RMK A01 T00560023  RH  080%=      5-min Rain = 0
KGU1 130634Z 17016KT 05/02 A3015 RMK A01 T00530024  RH  082%=      5-min Rain = 0
KGU1 130635Z 18015KT 05/02 A3015 RMK A01 T00510024  RH  084%=      5-min Rain = 0
KGU1 130636Z 18011KT 05/03 A3016 RMK A01 T00500025  RH  085%=      5-min Rain = 0
KGU1 130637Z 18011KT 05/03 A3016 RMK A01 T00500025  RH  085%=      5-min Rain = 0
KGU1 130638Z 17013KT 05/03 A3015 RMK A01 T00500025  RH  085%=      5-min Rain = 0
KGU1 130639Z 19010KT 05/03 A3015 RMK A01 T00500025  RH  086%=      5-min Rain = 0
KGU1 130640Z 20005KT 05/03 A3015 RMK A01 T00490025  RH  086%=      5-min Rain = 0
KGU1 130641Z 18009KT 05/03 A3015 RMK A01 T00490025  RH  086%=      5-min Rain = 0
KGU1 130642Z 18012G17KT 05/03 A3015 RMK A01 T00500025  RH  085%=      5-min Rain = 0
KGU1 130643Z 20008G14KT 05/03 A3015 RMK A01 T00510025  RH  085%=      5-min Rain = 0
KGU1 130644Z 19014KT 05/03 A3015 RMK A01 T00500025  RH  085%=      5-min Rain = 0
KGU1 130645Z 18011KT 05/03 A3015 RMK A01 T00500025  RH  085%=      5-min Rain = 0
KGU1 130646Z 18014KT 05/03 A3015 RMK A01 T00490025  RH  085%=      5-min Rain = 0
KGU1 130647Z 18012KT 05/03 A3015 RMK A01 T00490025  RH  086%=      5-min Rain = 0
KGU1 130648Z 18014KT 05/03 A3015 RMK A01 T00480025  RH  087%=      5-min Rain = 0
KGU1 130649Z 18011G16KT 05/03 A3015 RMK A01 T00480026  RH  087%=      5-min Rain = 0
KGU1 130650Z 18012KT 05/03 A3015 RMK A01 T00490026  RH  087%=      5-min Rain = 0
KGU1 130651Z 18013KT 05/03 A3014 RMK A01 T00490026  RH  086%=      5-min Rain = 0
KGU1 130652Z 18014KT 05/03 A3015 RMK A01 T00500025  RH  086%=      5-min Rain = 0
KGU1 130653Z 18012KT 05/03 A3015 RMK A01 T00490025  RH  086%=      5-min Rain = 0
KGU1 130654Z 18013KT 05/03 A3015 RMK A01 T00490025  RH  086%=      5-min Rain = 0
KGU1 130655Z 18011KT 05/03 A3015 RMK A01 T00480026  RH  087%=      5-min Rain = 0
KGU1 130656Z 19013KT 05/03 A3015 RMK A01 T00480026  RH  087%=      5-min Rain = 0
KGU1 130657Z 17010KT 05/03 A3015 RMK A01 T00490026  RH  087%=      5-min Rain = 0
KGU1 130658Z 18012KT 05/03 A3014 RMK A01 T00480026  RH  087%=      5-min Rain = 0
KGU1 130659Z 18011KT 05/03 A3014 RMK A01 T00480026  RH  087%=      5-min Rain = 0
KGU1 130700Z 18013KT 05/03 A3014 RMK A01 T00480026  RH  087%=      5-min Rain = 0
KGU1 130701Z 18012G18KT 05/03 A3014 RMK A01 T00480026  RH  087%=      5-min Rain = 0
KGU1 130702Z 20012G18KT 05/03 A3014 RMK A01 T00490026  RH  087%=      5-min Rain = 0
KGU1 130703Z 17013G19KT 05/03 A3014 RMK A01 T00500026  RH  086%=      5-min Rain = 0
KGU1 130704Z 16012KT 05/03 A3014 RMK A01 T00510026  RH  085%=      5-min Rain = 0
KGU1 130705Z 17011KT 05/03 A3014 RMK A01 T00500026  RH  085%=      5-min Rain = 0
KGU1 130706Z 19007KT 05/03 A3014 RMK A01 T00500026  RH  086%=      5-min Rain = 0
KGU1 130707Z 16006KT 05/03 A3014 RMK A01 T00490025  RH  086%=      5-min Rain = 0
KGU1 130708Z 15013KT 05/03 A3013 RMK A01 T00490025  RH  086%=      5-min Rain = 0
KGU1 130709Z 17010KT 05/03 A3013 RMK A01 T00510025  RH  085%=      5-min Rain = 0
KGU1 130710Z 18006KT 05/02 A3014 RMK A01 T00540023  RH  082%=      5-min Rain = 0
KGU1 130711Z 16010KT 05/02 A3013 RMK A01 T00540022  RH  081%=      5-min Rain = 0
KGU1 130712Z 15007KT 05/02 A3014 RMK A01 T00510022  RH  083%=      5-min Rain = 0
KGU1 130713Z 14011KT 05/02 A3014 RMK A01 T00490024  RH  085%=      5-min Rain = 0
KGU1 130714Z 15010KT 05/02 A3013 RMK A01 T00480024  RH  086%=      5-min Rain = 0
KGU1 130715Z 15010KT 05/02 A3014 RMK A01 T00500024  RH  085%=      5-min Rain = 0
KGU1 130716Z 18003G8KT 05/02 A3014 RMK A01 T00520023  RH  083%=      5-min Rain = 0
KGU1 130717Z 09002KT 05/02 A3014 RMK A01 T00540021  RH  081%=      5-min Rain = 0
KGU1 130718Z 14007KT 05/02 A3014 RMK A01 T00540021  RH  080%=      5-min Rain = 0
KGU1 130719Z 12006KT 05/02 A3014 RMK A01 T00530021  RH  081%=      5-min Rain = 0
KGU1 130720Z 14006KT 05/02 A3014 RMK A01 T00530021  RH  081%=      5-min Rain = 0
KGU1 130721Z 13005KT 06/02 A3014 RMK A01 T00550020  RH  080%=      5-min Rain = 0
KGU1 130722Z 10004KT 06/02 A3014 RMK A01 T00550020  RH  080%=      5-min Rain = 0
KGU1 130723Z 12005KT 06/02 A3014 RMK A01 T00550019  RH  079%=      5-min Rain = 0
KGU1 130724Z 12006KT 06/02 A3013 RMK A01 T00570018  RH  077%=      5-min Rain = 0
KGU1 130725Z 11004KT 06/02 A3013 RMK A01 T00580018  RH  077%=      5-min Rain = 0
KGU1 130726Z 09007KT 06/02 A3013 RMK A01 T00610016  RH  074%=      5-min Rain = 0
KGU1 130727Z 12005KT 06/02 A3013 RMK A01 T00630016  RH  073%=      5-min Rain = 0
KGU1 130728Z 13003KT 06/02 A3013 RMK A01 T00610017  RH  075%=      5-min Rain = 0
KGU1 130729Z 16002KT 06/02 A3013 RMK A01 T00580018  RH  077%=      5-min Rain = 0
KGU1 130730Z 12004KT 06/02 A3013 RMK A01 T00580017  RH  076%=      5-min Rain = 0
KGU1 130731Z 11005KT 06/02 A3013 RMK A01 T00580018  RH  076%=      5-min Rain = 0
KGU1 130732Z 11003G8KT 06/02 A3013 RMK A01 T00560018  RH  078%=      5-min Rain = 0
KGU1 130733Z 10003G8KT 05/02 A3014 RMK A01 T00540018  RH  079%=      5-min Rain = 0
KGU1 130734Z 14007KT 05/02 A3013 RMK A01 T00530019  RH  080%=      5-min Rain = 0
KGU1 130735Z 33004G10KT 06/01 A3013 RMK A01 T00600012  RH  072%=      5-min Rain = 0
KGU1 130736Z 10001KT 07/01 A3013 RMK A01 T00720005  RH  063%=      5-min Rain = 0
KGU1 130737Z 10002KT 08/00 A3013 RMK A01 T00790001  RH  058%=      5-min Rain = 0
KGU1 130738Z 08004KT 08/01 A3013 RMK A01 T00820006  RH  060%=      5-min Rain = 0
KGU1 130739Z 05004KT 08/01 A3013 RMK A01 T00780008  RH  062%=      5-min Rain = 0
KGU1 130740Z 02004KT 08/01 A3013 RMK A01 T00750009  RH  064%=      5-min Rain = 0
KGU1 130741Z 04005KT 07/01 A3013 RMK A01 T00700012  RH  067%=      5-min Rain = 0
KGU1 130742Z 09004KT 07/01 A3013 RMK A01 T00660013  RH  070%=      5-min Rain = 0
KGU1 130743Z 12005KT 07/01 A3013 RMK A01 T00650013  RH  070%=      5-min Rain = 0
KGU1 130744Z 12007KT 07/01 A3013 RMK A01 T00670013  RH  069%=      5-min Rain = 0
KGU1 130745Z 15008G13KT 07/02 A3013 RMK A01 T00660015  RH  071%=      5-min Rain = 0
KGU1 130746Z 16009KT 06/02 A3014 RMK A01 T00600016  RH  075%=      5-min Rain = 0
KGU1 130747Z 15007KT 06/02 A3013 RMK A01 T00570017  RH  077%=      5-min Rain = 0
KGU1 130748Z 13008KT 06/02 A3013 RMK A01 T00550018  RH  078%=      5-min Rain = 0
KGU1 130749Z 13009KT 05/02 A3013 RMK A01 T00520019  RH  080%=      5-min Rain = 0
KGU1 130750Z 15008KT 05/02 A3013 RMK A01 T00520020  RH  081%=      5-min Rain = 0
KGU1 130751Z 16007KT 05/02 A3013 RMK A01 T00540019  RH  079%=      5-min Rain = 0
KGU1 130752Z 16012KT 05/02 A3013 RMK A01 T00540019  RH  079%=      5-min Rain = 0
KGU1 130753Z 16009KT 05/02 A3013 RMK A01 T00520020  RH  081%=      5-min Rain = 0
KGU1 130754Z 15012G17KT 05/02 A3013 RMK A01 T00490020  RH  082%=      5-min Rain = 0
KGU1 130755Z 14010KT 05/02 A3013 RMK A01 T00490021  RH  083%=      5-min Rain = 0
KGU1 130756Z 14009KT 05/02 A3013 RMK A01 T00490020  RH  083%=      5-min Rain = 0
KGU1 130757Z 13008KT 05/02 A3013 RMK A01 T00490020  RH  083%=      5-min Rain = 0
KGU1 130758Z 13009KT 05/02 A3013 RMK A01 T00510019  RH  081%=      5-min Rain = 0
KGU1 130759Z 14008KT 05/02 A3013 RMK A01 T00540018  RH  079%=      5-min Rain = 0
KGU1 130800Z 14009KT 05/02 A3013 RMK A01 T00530018  RH  079%=      5-min Rain = 0
KGU1 130801Z 14009KT 05/02 A3013 RMK A01 T00510019  RH  081%=      5-min Rain = 0
KGU1 130802Z 14011KT 05/02 A3013 RMK A01 T00500020  RH  082%=      5-min Rain = 0
KGU1 130803Z 14010KT 05/02 A3013 RMK A01 T00490020  RH  083%=      5-min Rain = 0
KGU1 130804Z 14010KT 05/02 A3013 RMK A01 T00500019  RH  082%=      5-min Rain = 0
KGU1 130805Z 14009KT 05/02 A3013 RMK A01 T00510018  RH  081%=      5-min Rain = 0
KGU1 130806Z 14007KT 06/02 A3013 RMK A01 T00550017  RH  078%=      5-min Rain = 0
KGU1 130807Z 13007KT 06/02 A3013 RMK A01 T00550017  RH  077%=      5-min Rain = 0
KGU1 130808Z 12008KT 05/02 A3013 RMK A01 T00540017  RH  078%=      5-min Rain = 0
KGU1 130809Z 14007KT 05/02 A3013 RMK A01 T00530017  RH  079%=      5-min Rain = 0
KGU1 130810Z 14006KT 05/02 A3013 RMK A01 T00530017  RH  079%=      5-min Rain = 0
KGU1 130811Z 12009KT 06/02 A3013 RMK A01 T00550016  RH  077%=      5-min Rain = 0
KGU1 130812Z 13008KT 06/02 A3013 RMK A01 T00550017  RH  077%=      5-min Rain = 0
KGU1 130813Z 14009KT 05/02 A3013 RMK A01 T00530017  RH  078%=      5-min Rain = 0
KGU1 130814Z 14013KT 06/02 A3012 RMK A01 T00550016  RH  077%=      5-min Rain = 0
KGU1 130815Z 14009KT 06/02 A3013 RMK A01 T00550017  RH  078%=      5-min Rain = 0
KGU1 130816Z 13004G9KT 06/02 A3013 RMK A01 T00550017  RH  078%=      5-min Rain = 0
KGU1 130817Z 14002KT 06/02 A3013 RMK A01 T00550017  RH  078%=      5-min Rain = 0
KGU1 130818Z 14004KT 05/02 A3013 RMK A01 T00540017  RH  079%=      5-min Rain = 0
KGU1 130819Z 09007KT 05/02 A3013 RMK A01 T00530017  RH  078%=      5-min Rain = 0
KGU1 130820Z 12008G14KT 05/02 A3014 RMK A01 T00530017  RH  078%=      5-min Rain = 0
KGU1 130821Z 13008KT 06/02 A3013 RMK A01 T00550017  RH  077%=      5-min Rain = 0
KGU1 130822Z 14011KT 06/02 A3013 RMK A01 T00580015  RH  075%=      5-min Rain = 0
KGU1 130823Z 15008G13KT 06/01 A3014 RMK A01 T00610013  RH  072%=      5-min Rain = 0
KGU1 130824Z 12014KT 06/01 A3013 RMK A01 T00620014  RH  073%=      5-min Rain = 0
KGU1 130825Z 13011G16KT 06/02 A3013 RMK A01 T00560017  RH  077%=      5-min Rain = 0
KGU1 130826Z 11003G8KT 05/02 A3014 RMK A01 T00530017  RH  079%=      5-min Rain = 0
KGU1 130827Z 22002KT 05/02 A3014 RMK A01 T00520018  RH  080%=      5-min Rain = 0
KGU1 130828Z 15008KT 05/02 A3014 RMK A01 T00520017  RH  079%=      5-min Rain = 0
KGU1 130829Z 15011KT 06/02 A3014 RMK A01 T00560016  RH  077%=      5-min Rain = 0
KGU1 130830Z 16010KT 06/02 A3014 RMK A01 T00560017  RH  077%=      5-min Rain = 0
KGU1 130831Z 15014KT 05/02 A3014 RMK A01 T00520017  RH  079%=      5-min Rain = 0
KGU1 130832Z 15012KT 05/02 A3014 RMK A01 T00490018  RH  082%=      5-min Rain = 0
KGU1 130833Z 16014KT 05/02 A3014 RMK A01 T00470019  RH  083%=      5-min Rain = 0
KGU1 130834Z 15018KT 05/02 A3014 RMK A01 T00460019  RH  084%=      5-min Rain = 0
KGU1 130835Z 14011KT 05/02 A3014 RMK A01 T00470020  RH  084%=      5-min Rain = 0
KGU1 130836Z 13009KT 05/02 A3014 RMK A01 T00470020  RH  083%=      5-min Rain = 0
KGU1 130837Z 14005KT 05/02 A3014 RMK A01 T00480019  RH  083%=      5-min Rain = 0
KGU1 130838Z 14007KT 05/02 A3014 RMK A01 T00510018  RH  081%=      5-min Rain = 0
KGU1 130839Z 14008KT 05/02 A3013 RMK A01 T00510018  RH  080%=      5-min Rain = 0
KGU1 130840Z 15008KT 05/02 A3014 RMK A01 T00520017  RH  079%=      5-min Rain = 0
KGU1 130841Z 16009KT 05/02 A3013 RMK A01 T00530016  RH  078%=      5-min Rain = 0
KGU1 130842Z 16011KT 05/02 A3013 RMK A01 T00510016  RH  079%=      5-min Rain = 0
KGU1 130843Z 16010KT 05/02 A3013 RMK A01 T00500017  RH  080%=      5-min Rain = 0
KGU1 130844Z 17009KT 05/02 A3013 RMK A01 T00490017  RH  081%=      5-min Rain = 0
KGU1 130845Z 18009KT 05/02 A3014 RMK A01 T00480018  RH  082%=      5-min Rain = 0
KGU1 130846Z 17007KT 05/02 A3014 RMK A01 T00490018  RH  082%=      5-min Rain = 0
KGU1 130847Z 17008KT 05/02 A3013 RMK A01 T00480018  RH  082%=      5-min Rain = 0
KGU1 130848Z 16005KT 05/02 A3014 RMK A01 T00470018  RH  083%=      5-min Rain = 0
KGU1 130849Z 16005KT 05/02 A3013 RMK A01 T00460018  RH  084%=      5-min Rain = 0
KGU1 130850Z 16007KT 05/02 A3013 RMK A01 T00470018  RH  083%=      5-min Rain = 0
KGU1 130851Z 16009KT 05/02 A3013 RMK A01 T00510017  RH  080%=      5-min Rain = 0
KGU1 130852Z 16005KT 05/02 A3013 RMK A01 T00540016  RH  078%=      5-min Rain = 0
KGU1 130853Z 16004KT 06/02 A3013 RMK A01 T00550015  RH  076%=      5-min Rain = 0
KGU1 130854Z 15004KT 06/02 A3013 RMK A01 T00570015  RH  076%=      5-min Rain = 0
KGU1 130855Z 15001KT 06/01 A3013 RMK A01 T00570013  RH  075%=      5-min Rain = 0
KGU1 130856Z 11001KT 06/01 A3013 RMK A01 T00610008  RH  070%=      5-min Rain = 0
KGU1 130857Z 05003KT 07/01 A3013 RMK A01 T00690006  RH  065%=      5-min Rain = 0
KGU1 130858Z 34005KT 07/01 A3013 RMK A01 T00740005  RH  063%=      5-min Rain = 0
KGU1 130859Z 30005G14KT 07/01 A3013 RMK A01 T00690009  RH  066%=      5-min Rain = 0
KGU1 130900Z 29011KT 07/00 A3013 RMK A01 T00740001  RH  061%=      5-min Rain = 0
KGU1 130901Z 30015KT 09/M01 A3013 RMK A01 T00941011  RH  048%=      5-min Rain = 0
KGU1 130902Z 31012G19KT 11/M01 A3013 RMK A01 T01051008  RH  046%=      5-min Rain = 0
KGU1 130903Z 30013KT 11/M01 A3013 RMK A01 T01051012  RH  044%=      5-min Rain = 0
KGU1 130904Z 31015KT 11/M02 A3013 RMK A01 T01121016  RH  041%=      5-min Rain = 0
KGU1 130905Z 31013KT 12/M02 A3013 RMK A01 T01181018  RH  039%=      5-min Rain = 0
KGU1 130906Z 30011KT 12/M02 A3013 RMK A01 T01201018  RH  039%=      5-min Rain = 0
KGU1 130907Z 29009KT 12/M02 A3013 RMK A01 T01211018  RH  038%=      5-min Rain = 0
KGU1 130908Z 29013G19KT 12/M02 A3013 RMK A01 T01191017  RH  039%=      5-min Rain = 0
KGU1 130909Z 29015G20KT 12/M02 A3013 RMK A01 T01211019  RH  038%=      5-min Rain = 0
KGU1 130910Z 29009KT 12/M02 A3012 RMK A01 T01231019  RH  037%=      5-min Rain = 0
KGU1 130911Z 29012KT 12/M02 A3012 RMK A01 T01221019  RH  038%=      5-min Rain = 0
KGU1 130912Z 30010KT 12/M02 A3012 RMK A01 T01211019  RH  038%=      5-min Rain = 0
KGU1 130913Z 29008KT 12/M02 A3012 RMK A01 T01211019  RH  038%=      5-min Rain = 0
KGU1 130914Z 31009KT 12/M02 A3012 RMK A01 T01211019  RH  038%=      5-min Rain = 0
KGU1 130915Z 30010KT 12/M02 A3012 RMK A01 T01211020  RH  038%=      5-min Rain = 0
KGU1 130916Z 31008KT 12/M02 A3012 RMK A01 T01221020  RH  037%=      5-min Rain = 0
KGU1 130917Z 30008KT 12/M02 A3012 RMK A01 T01221020  RH  037%=      5-min Rain = 0
KGU1 130918Z 29007KT 12/M02 A3012 RMK A01 T01211020  RH  038%=      5-min Rain = 0
KGU1 130919Z 29009KT 12/M02 A3012 RMK A01 T01211020  RH  038%=      5-min Rain = 0
KGU1 130920Z 30012KT 12/M02 A3012 RMK A01 T01221021  RH  037%=      5-min Rain = 0
KGU1 130921Z 30011KT 12/M02 A3012 RMK A01 T01221020  RH  038%=      5-min Rain = 0
KGU1 130922Z 29012KT 12/M02 A3011 RMK A01 T01211019  RH  038%=      5-min Rain = 0
KGU1 130923Z 30014KT 12/M02 A3012 RMK A01 T01211019  RH  038%=      5-min Rain = 0
KGU1 130924Z 30014KT 12/M02 A3011 RMK A01 T01221020  RH  038%=      5-min Rain = 0
KGU1 130925Z 30014KT 12/M02 A3012 RMK A01 T01231020  RH  037%=      5-min Rain = 0
KGU1 130926Z 30013KT 12/M02 A3012 RMK A01 T01231019  RH  037%=      5-min Rain = 0
KGU1 130927Z 30015KT 12/M02 A3012 RMK A01 T01231021  RH  037%=      5-min Rain = 0
KGU1 130928Z 31013KT 12/M02 A3012 RMK A01 T01241020  RH  037%=      5-min Rain = 0
KGU1 130929Z 30016G23KT 12/M02 A3012 RMK A01 T01241022  RH  036%=      5-min Rain = 0
KGU1 130930Z 32017G22KT 13/M02 A3012 RMK A01 T01281023  RH  035%=      5-min Rain = 0
KGU1 130931Z 30012KT 13/M02 A3012 RMK A01 T01291022  RH  035%=      5-min Rain = 0
KGU1 130932Z 31012KT 13/M02 A3012 RMK A01 T01271021  RH  036%=      5-min Rain = 0
KGU1 130933Z 32015G22KT 13/M02 A3011 RMK A01 T01261021  RH  036%=      5-min Rain = 0
KGU1 130934Z 31017G23KT 13/M02 A3012 RMK A01 T01261022  RH  036%=      5-min Rain = 0
KGU1 130935Z 32013KT 13/M02 A3011 RMK A01 T01291023  RH  035%=      5-min Rain = 0
KGU1 130936Z 31018G23KT 13/M02 A3012 RMK A01 T01291023  RH  035%=      5-min Rain = 0
KGU1 130937Z 31019G25KT 13/M02 A3012 RMK A01 T01301024  RH  035%=      5-min Rain = 0
KGU1 130938Z 31015KT 13/M02 A3012 RMK A01 T01321024  RH  034%=      5-min Rain = 0
KGU1 130939Z 30016G21KT 13/M02 A3012 RMK A01 T01311023  RH  035%=      5-min Rain = 0
KGU1 130940Z 32018G25KT 13/M02 A3012 RMK A01 T01301024  RH  035%=      5-min Rain = 0
KGU1 130941Z 31017G25KT 13/M02 A3012 RMK A01 T01321024  RH  034%=      5-min Rain = 0
KGU1 130942Z 31015G21KT 13/M02 A3011 RMK A01 T01311022  RH  035%=      5-min Rain = 0
KGU1 130943Z 30012KT 13/M02 A3011 RMK A01 T01281022  RH  035%=      5-min Rain = 0
KGU1 130944Z 30012KT 13/M02 A3011 RMK A01 T01271023  RH  035%=      5-min Rain = 0
KGU1 130945Z 31012KT 13/M02 A3011 RMK A01 T01261022  RH  036%=      5-min Rain = 0
KGU1 130946Z 30012KT 13/M02 A3011 RMK A01 T01251021  RH  036%=      5-min Rain = 0
KGU1 130947Z 31014G20KT 13/M02 A3011 RMK A01 T01251022  RH  036%=      5-min Rain = 0
KGU1 130948Z 30013G18KT 13/M02 A3011 RMK A01 T01271022  RH  036%=      5-min Rain = 0
KGU1 130949Z 30012KT 13/M02 A3011 RMK A01 T01271023  RH  035%=      5-min Rain = 0
KGU1 130950Z 30012KT 13/M02 A3011 RMK A01 T01261022  RH  036%=      5-min Rain = 0
KGU1 130951Z 29016KT 13/M02 A3011 RMK A01 T01271024  RH  035%=      5-min Rain = 0
KGU1 130952Z 30014G19KT 13/M02 A3011 RMK A01 T01281023  RH  035%=      5-min Rain = 0
KGU1 130953Z 29016G22KT 13/M02 A3011 RMK A01 T01271023  RH  035%=      5-min Rain = 0
KGU1 130954Z 28017G23KT 13/M02 A3011 RMK A01 T01281024  RH  035%=      5-min Rain = 0
KGU1 130955Z 29016KT 13/M02 A3011 RMK A01 T01291023  RH  035%=      5-min Rain = 0
KGU1 130956Z 30012KT 13/M02 A3011 RMK A01 T01281023  RH  035%=      5-min Rain = 0
KGU1 130957Z 29012KT 13/M02 A3011 RMK A01 T01271022  RH  036%=      5-min Rain = 0
KGU1 130958Z 29010KT 13/M02 A3011 RMK A01 T01261022  RH  036%=      5-min Rain = 0
KGU1 130959Z 30014KT 13/M02 A3011 RMK A01 T01251022  RH  036%=      5-min Rain = 0
KGU1 131000Z 29013KT 13/M02 A3011 RMK A01 T01251022  RH  036%=      5-min Rain = 0
KGU1 131001Z 30012KT 13/M02 A3011 RMK A01 T01251022  RH  036%=      5-min Rain = 0
KGU1 131002Z 30012KT 13/M02 A3012 RMK A01 T01251022  RH  036%=      5-min Rain = 0
KGU1 131003Z 29012KT 13/M02 A3011 RMK A01 T01251022  RH  036%=      5-min Rain = 0
KGU1 131004Z 30014KT 13/M02 A3012 RMK A01 T01251022  RH  036%=      5-min Rain = 0
KGU1 131005Z 31011KT 13/M02 A3012 RMK A01 T01251022  RH  036%=      5-min Rain = 0
KGU1 131006Z 30013G18KT 13/M02 A3012 RMK A01 T01261023  RH  036%=      5-min Rain = 0
KGU1 131007Z 30011KT 13/M02 A3012 RMK A01 T01271024  RH  035%=      5-min Rain = 0
KGU1 131008Z 29012KT 13/M02 A3012 RMK A01 T01271023  RH  036%=      5-min Rain = 0
KGU1 131009Z 29010KT 13/M02 A3012 RMK A01 T01251022  RH  036%=      5-min Rain = 0
KGU1 131010Z 30011KT 12/M02 A3012 RMK A01 T01241022  RH  036%=      5-min Rain = 0
KGU1 131011Z 31013G20KT 13/M02 A3012 RMK A01 T01251024  RH  036%=      5-min Rain = 0
KGU1 131012Z 30010KT 13/M02 A3012 RMK A01 T01261023  RH  035%=      5-min Rain = 0
KGU1 131013Z 30009KT 13/M02 A3012 RMK A01 T01261023  RH  036%=      5-min Rain = 0
KGU1 131014Z 30008KT 12/M02 A3012 RMK A01 T01241022  RH  036%=      5-min Rain = 0
KGU1 131015Z 30011G18KT 12/M02 A3012 RMK A01 T01231023  RH  036%=      5-min Rain = 0
KGU1 131016Z 29010KT 12/M02 A3012 RMK A01 T01241023  RH  036%=      5-min Rain = 0
KGU1 131017Z 29013KT 13/M02 A3012 RMK A01 T01251022  RH  036%=      5-min Rain = 0
KGU1 131018Z 30010KT 12/M02 A3012 RMK A01 T01231022  RH  037%=      5-min Rain = 0
KGU1 131019Z 30010KT 12/M02 A3012 RMK A01 T01241023  RH  036%=      5-min Rain = 0
KGU1 131020Z 30009KT 13/M02 A3012 RMK A01 T01251023  RH  036%=      5-min Rain = 0
KGU1 131021Z 30010KT 12/M02 A3012 RMK A01 T01241023  RH  036%=      5-min Rain = 0
KGU1 131022Z 31012KT 12/M02 A3011 RMK A01 T01241024  RH  036%=      5-min Rain = 0
KGU1 131023Z 28011G16KT 13/M02 A3011 RMK A01 T01261024  RH  036%=      5-min Rain = 0
KGU1 131024Z 29012G18KT 13/M02 A3011 RMK A01 T01261023  RH  036%=      5-min Rain = 0
KGU1 131025Z 28014KT 13/M02 A3011 RMK A01 T01261023  RH  036%=      5-min Rain = 0
KGU1 131026Z 28012KT 13/M02 A3011 RMK A01 T01251022  RH  036%=      5-min Rain = 0
KGU1 131027Z 29012KT 12/M02 A3011 RMK A01 T01241022  RH  036%=      5-min Rain = 0
KGU1 131028Z 29016KT 12/M02 A3011 RMK A01 T01241023  RH  036%=      5-min Rain = 0
KGU1 131029Z 28019G24KT 13/M02 A3011 RMK A01 T01251024  RH  036%=      5-min Rain = 0
KGU1 131030Z 28013G19KT 13/M02 A3011 RMK A01 T01261023  RH  036%=      5-min Rain = 0
KGU1 131031Z 28016G21KT 13/M02 A3011 RMK A01 T01251023  RH  036%=      5-min Rain = 0
KGU1 131032Z 29017KT 13/M02 A3011 RMK A01 T01251023  RH  036%=      5-min Rain = 0
KGU1 131033Z 29017KT 13/M02 A3011 RMK A01 T01261024  RH  035%=      5-min Rain = 0
KGU1 131034Z 28017KT 13/M02 A3011 RMK A01 T01271024  RH  035%=      5-min Rain = 0
KGU1 131035Z 29016KT 13/M03 A3011 RMK A01 T01281025  RH  035%=      5-min Rain = 0
KGU1 131036Z 28012KT 13/M02 A3011 RMK A01 T01281024  RH  035%=      5-min Rain = 0
KGU1 131037Z 29013KT 13/M02 A3011 RMK A01 T01271024  RH  035%=      5-min Rain = 0
KGU1 131038Z 30011KT 13/M02 A3012 RMK A01 T01261024  RH  035%=      5-min Rain = 0
KGU1 131039Z 30010G17KT 13/M02 A3012 RMK A01 T01261024  RH  035%=      5-min Rain = 0
KGU1 131040Z 31010KT 13/M02 A3012 RMK A01 T01251024  RH  036%=      5-min Rain = 0
KGU1 131041Z 30009KT 12/M02 A3012 RMK A01 T01241023  RH  036%=      5-min Rain = 0
KGU1 131042Z 29013KT 12/M02 A3012 RMK A01 T01241023  RH  036%=      5-min Rain = 0
KGU1 131043Z 30015KT 13/M02 A3012 RMK A01 T01251024  RH  036%=      5-min Rain = 0
KGU1 131044Z 31012KT 13/M02 A3012 RMK A01 T01271024  RH  035%=      5-min Rain = 0
KGU1 131045Z 31011KT 13/M02 A3012 RMK A01 T01261024  RH  035%=      5-min Rain = 0
KGU1 131046Z 30010KT 13/M02 A3012 RMK A01 T01261023  RH  036%=      5-min Rain = 0
KGU1 131047Z 30008KT 13/M02 A3012 RMK A01 T01251023  RH  036%=      5-min Rain = 0
KGU1 131048Z 29010KT 13/M02 A3012 RMK A01 T01251023  RH  036%=      5-min Rain = 0
KGU1 131049Z 29010KT 13/M02 A3012 RMK A01 T01251024  RH  036%=      5-min Rain = 0
KGU1 131050Z 30009KT 13/M02 A3012 RMK A01 T01251023  RH  036%=      5-min Rain = 0
KGU1 131051Z 31012KT 13/M02 A3012 RMK A01 T01251024  RH  036%=      5-min Rain = 0
KGU1 131052Z 31012KT 13/M03 A3013 RMK A01 T01261025  RH  035%=      5-min Rain = 0
KGU1 131053Z 30010KT 13/M03 A3013 RMK A01 T01281025  RH  035%=      5-min Rain = 0
KGU1 131054Z 29012KT 13/M03 A3013 RMK A01 T01281025  RH  035%=      5-min Rain = 0
KGU1 131055Z 30011KT 13/M02 A3013 RMK A01 T01271024  RH  035%=      5-min Rain = 0
KGU1 131056Z 31011KT 13/M02 A3013 RMK A01 T01261024  RH  035%=      5-min Rain = 0
KGU1 131057Z 30009KT 13/M02 A3013 RMK A01 T01261023  RH  035%=      5-min Rain = 0
KGU1 131058Z 29010KT 13/M02 A3012 RMK A01 T01261023  RH  036%=      5-min Rain = 0
KGU1 131059Z 30009KT 13/M02 A3012 RMK A01 T01251022  RH  036%=      5-min Rain = 0
KGU1 131100Z 30009KT 12/M02 A3012 RMK A01 T01241023  RH  036%=      5-min Rain = 0
KGU1 131101Z 30010G18KT 12/M02 A3012 RMK A01 T01231023  RH  036%=      5-min Rain = 0
KGU1 131102Z 30011G16KT 13/M02 A3012 RMK A01 T01261024  RH  035%=      5-min Rain = 0
KGU1 131103Z 30011KT 13/M02 A3012 RMK A01 T01271023  RH  035%=      5-min Rain = 0
KGU1 131104Z 29015G23KT 13/M02 A3012 RMK A01 T01261023  RH  036%=      5-min Rain = 0
KGU1 131105Z 29017KT 13/M02 A3012 RMK A01 T01271023  RH  035%=      5-min Rain = 0
KGU1 131106Z 29015KT 13/M02 A3012 RMK A01 T01281024  RH  035%=      5-min Rain = 0
KGU1 131107Z 31011KT 13/M02 A3012 RMK A01 T01281023  RH  035%=      5-min Rain = 0
KGU1 131108Z 30011KT 13/M02 A3012 RMK A01 T01261022  RH  036%=      5-min Rain = 0
KGU1 131109Z 32008G17KT 13/M02 A3013 RMK A01 T01251022  RH  036%=      5-min Rain = 0
KGU1 131110Z 31006G11KT 13/M02 A3012 RMK A01 T01251023  RH  036%=      5-min Rain = 0
KGU1 131111Z 29014G22KT 13/M02 A3012 RMK A01 T01261024  RH  036%=      5-min Rain = 0
KGU1 131112Z 30016G21KT 13/M02 A3012 RMK A01 T01281024  RH  035%=      5-min Rain = 0
KGU1 131113Z 31013KT 13/M02 A3012 RMK A01 T01301024  RH  035%=      5-min Rain = 0
KGU1 131114Z 30019G24KT 13/M02 A3012 RMK A01 T01301024  RH  035%=      5-min Rain = 0
KGU1 131115Z 31014KT 13/M02 A3012 RMK A01 T01311024  RH  034%=      5-min Rain = 0
KGU1 131116Z 30011KT 13/M02 A3012 RMK A01 T01311023  RH  035%=      5-min Rain = 0
KGU1 131117Z 30013KT 13/M02 A3012 RMK A01 T01291023  RH  035%=      5-min Rain = 0
KGU1 131118Z 28020G27KT 13/M02 A3012 RMK A01 T01281023  RH  035%=      5-min Rain = 0
KGU1 131119Z 30015G21KT 13/M02 A3012 RMK A01 T01291023  RH  035%=      5-min Rain = 0
KGU1 131120Z 29014KT 13/M02 A3012 RMK A01 T01291023  RH  035%=      5-min Rain = 0
KGU1 131121Z 29014KT 13/M02 A3012 RMK A01 T01271023  RH  035%=      5-min Rain = 0
KGU1 131122Z 30011KT 13/M02 A3012 RMK A01 T01251021  RH  036%=      5-min Rain = 0
KGU1 131123Z 29015KT 13/M02 A3012 RMK A01 T01251022  RH  036%=      5-min Rain = 0
KGU1 131124Z 31012KT 13/M02 A3012 RMK A01 T01261023  RH  036%=      5-min Rain = 0
KGU1 131125Z 31012KT 13/M02 A3012 RMK A01 T01271023  RH  035%=      5-min Rain = 0
KGU1 131126Z 30009KT 13/M02 A3012 RMK A01 T01271023  RH  035%=      5-min Rain = 0
KGU1 131127Z 29015G24KT 13/M02 A3012 RMK A01 T01261022  RH  036%=      5-min Rain = 0
KGU1 131128Z 29015G21KT 13/M02 A3012 RMK A01 T01261022  RH  036%=      5-min Rain = 0
KGU1 131129Z 30013KT 13/M02 A3013 RMK A01 T01261022  RH  036%=      5-min Rain = 0
KGU1 131130Z 29010KT 13/M02 A3012 RMK A01 T01271023  RH  036%=      5-min Rain = 0
KGU1 131131Z 29012KT 13/M02 A3013 RMK A01 T01261022  RH  036%=      5-min Rain = 0
KGU1 131132Z 30013G18KT 13/M02 A3013 RMK A01 T01261023  RH  036%=      5-min Rain = 0
KGU1 131133Z 29011KT 13/M02 A3013 RMK A01 T01261022  RH  036%=      5-min Rain = 0
KGU1 131134Z 30011KT 13/M02 A3013 RMK A01 T01251022  RH  036%=      5-min Rain = 0
KGU1 131135Z 30015KT 13/M02 A3013 RMK A01 T01251022  RH  036%=      5-min Rain = 0
KGU1 131136Z 30014KT 13/M02 A3013 RMK A01 T01251022  RH  036%=      5-min Rain = 0
KGU1 131137Z 28013KT 13/M02 A3013 RMK A01 T01251022  RH  036%=      5-min Rain = 0
KGU1 131138Z 28015G22KT 13/M02 A3012 RMK A01 T01251022  RH  036%=      5-min Rain = 0
KGU1 131139Z 29018G25KT 12/M02 A3012 RMK A01 T01241022  RH  036%=      5-min Rain = 0
KGU1 131140Z 29015KT 13/M02 A3012 RMK A01 T01251022  RH  036%=      5-min Rain = 0
KGU1 131141Z 29015G20KT 13/M02 A3013 RMK A01 T01251022  RH  036%=      5-min Rain = 0
KGU1 131142Z 29013G18KT 12/M02 A3013 RMK A01 T01241021  RH  037%=      5-min Rain = 0
KGU1 131143Z 28015KT 13/M02 A3012 RMK A01 T01251022  RH  036%=      5-min Rain = 0
KGU1 131144Z 28016KT 13/M02 A3012 RMK A01 T01251022  RH  036%=      5-min Rain = 0
KGU1 131145Z 28015G20KT 13/M02 A3012 RMK A01 T01251022  RH  036%=      5-min Rain = 0
KGU1 131146Z 30012G17KT 13/M02 A3013 RMK A01 T01251021  RH  036%=      5-min Rain = 0
KGU1 131147Z 29012G18KT 12/M02 A3013 RMK A01 T01241022  RH  036%=      5-min Rain = 0
KGU1 131148Z 29018G23KT 13/M02 A3013 RMK A01 T01251021  RH  036%=      5-min Rain = 0
KGU1 131149Z 28018G24KT 12/M02 A3012 RMK A01 T01241021  RH  037%=      5-min Rain = 0
KGU1 131150Z 27015G21KT 13/M02 A3012 RMK A01 T01251022  RH  036%=      5-min Rain = 0
KGU1 131151Z 29012KT 13/M02 A3012 RMK A01 T01261021  RH  036%=      5-min Rain = 0
KGU1 131152Z 28013KT 13/M02 A3012 RMK A01 T01251021  RH  036%=      5-min Rain = 0
KGU1 131153Z 29015KT 12/M02 A3012 RMK A01 T01231020  RH  037%=      5-min Rain = 0
KGU1 131154Z 28017KT 12/M02 A3012 RMK A01 T01221020  RH  037%=      5-min Rain = 0
KGU1 131155Z 29014KT 12/M02 A3013 RMK A01 T01221020  RH  037%=      5-min Rain = 0
KGU1 131156Z 28017KT 12/M02 A3012 RMK A01 T01221020  RH  037%=      5-min Rain = 0
KGU1 131157Z 30019G25KT 12/M02 A3013 RMK A01 T01221021  RH  037%=      5-min Rain = 0
KGU1 131158Z 30015KT 12/M02 A3013 RMK A01 T01241021  RH  037%=      5-min Rain = 0
KGU1 131159Z 29015KT 12/M02 A3013 RMK A01 T01231020  RH  037%=      5-min Rain = 0
KGU1 131200Z 30014G20KT 12/M02 A3013 RMK A01 T01221020  RH  037%=      5-min Rain = 0
KGU1 131201Z 29017KT 12/M02 A3013 RMK A01 T01221020  RH  038%=      5-min Rain = 0
KGU1 131202Z 29015KT 12/M02 A3013 RMK A01 T01221020  RH  037%=      5-min Rain = 0
KGU1 131203Z 29015KT 12/M02 A3012 RMK A01 T01231020  RH  037%=      5-min Rain = 0
KGU1 131204Z 29015KT 12/M02 A3012 RMK A01 T01221021  RH  037%=      5-min Rain = 0
KGU1 131205Z 30014KT 12/M02 A3013 RMK A01 T01221021  RH  037%=      5-min Rain = 0
KGU1 131206Z 31010KT 12/M02 A3013 RMK A01 T01221020  RH  038%=      5-min Rain = 0
KGU1 131207Z 30008KT 12/M02 A3012 RMK A01 T01201020  RH  038%=      5-min Rain = 0
KGU1 131208Z 31007KT 12/M02 A3012 RMK A01 T01191020  RH  038%=      5-min Rain = 0
KGU1 131209Z 31006KT 12/M02 A3012 RMK A01 T01191020  RH  038%=      5-min Rain = 0
KGU1 131210Z 31008KT 12/M02 A3012 RMK A01 T01191020  RH  038%=      5-min Rain = 0
KGU1 131211Z 29011KT 12/M02 A3012 RMK A01 T01171020  RH  039%=      5-min Rain = 0
KGU1 131212Z 29013KT 12/M02 A3012 RMK A01 T01181020  RH  038%=      5-min Rain = 0
KGU1 131213Z 29011KT 12/M02 A3012 RMK A01 T01191020  RH  038%=      5-min Rain = 0
KGU1 131214Z 30007KT 12/M02 A3012 RMK A01 T01191019  RH  039%=      5-min Rain = 0
KGU1 131215Z 29010KT 12/M02 A3012 RMK A01 T01171020  RH  039%=      5-min Rain = 0
KGU1 131216Z 30012KT 12/M02 A3013 RMK A01 T01191020  RH  038%=      5-min Rain = 0
KGU1 131217Z 30010KT 12/M02 A3013 RMK A01 T01211021  RH  038%=      5-min Rain = 0
KGU1 131218Z 29012G17KT 12/M02 A3013 RMK A01 T01211020  RH  038%=      5-min Rain = 0
KGU1 131219Z 29011KT 12/M02 A3013 RMK A01 T01201020  RH  038%=      5-min Rain = 0
KGU1 131220Z 30014KT 12/M02 A3013 RMK A01 T01201020  RH  038%=      5-min Rain = 0
KGU1 131221Z 30012G17KT 12/M02 A3013 RMK A01 T01191019  RH  039%=      5-min Rain = 0
KGU1 131222Z 30011KT 12/M02 A3013 RMK A01 T01201021  RH  038%=      5-min Rain = 0
KGU1 131223Z 29014KT 12/M02 A3013 RMK A01 T01221021  RH  037%=      5-min Rain = 0
KGU1 131224Z 28017G22KT 12/M02 A3013 RMK A01 T01231020  RH  037%=      5-min Rain = 0
KGU1 131225Z 30016KT 12/M02 A3013 RMK A01 T01221020  RH  037%=      5-min Rain = 0
KGU1 131226Z 30014KT 12/M02 A3013 RMK A01 T01231021  RH  037%=      5-min Rain = 0
KGU1 131227Z 28014KT 12/M02 A3013 RMK A01 T01231020  RH  037%=      5-min Rain = 0
KGU1 131228Z 29017KT 12/M02 A3013 RMK A01 T01221020  RH  037%=      5-min Rain = 0
KGU1 131229Z 29016KT 12/M02 A3013 RMK A01 T01231021  RH  037%=      5-min Rain = 0
KGU1 131230Z 29014KT 12/M02 A3013 RMK A01 T01241022  RH  036%=      5-min Rain = 0
KGU1 131231Z 31012KT 12/M02 A3013 RMK A01 T01231020  RH  037%=      5-min Rain = 0
KGU1 131232Z 31009KT 12/M02 A3013 RMK A01 T01201019  RH  038%=      5-min Rain = 0
KGU1 131233Z 31008KT 12/M02 A3013 RMK A01 T01181020  RH  039%=      5-min Rain = 0
KGU1 131234Z 30008KT 12/M02 A3013 RMK A01 T01191021  RH  038%=      5-min Rain = 0
KGU1 131235Z 29009KT 12/M02 A3013 RMK A01 T01191020  RH  038%=      5-min Rain = 0
KGU1 131236Z 30010KT 12/M02 A3013 RMK A01 T01191021  RH  038%=      5-min Rain = 0
KGU1 131237Z 30012KT 12/M02 A3013 RMK A01 T01211021  RH  038%=      5-min Rain = 0
KGU1 131238Z 29013KT 12/M02 A3013 RMK A01 T01201020  RH  038%=      5-min Rain = 0
KGU1 131239Z 29013KT 12/M02 A3013 RMK A01 T01201020  RH  038%=      5-min Rain = 0
KGU1 131240Z 29011KT 12/M02 A3013 RMK A01 T01201019  RH  038%=      5-min Rain = 0
KGU1 131241Z 29012KT 12/M02 A3013 RMK A01 T01181019  RH  039%=      5-min Rain = 0
KGU1 131242Z 30011KT 12/M02 A3013 RMK A01 T01191020  RH  038%=      5-min Rain = 0
KGU1 131243Z 29015KT 12/M02 A3012 RMK A01 T01201021  RH  038%=      5-min Rain = 0
KGU1 131244Z 31012KT 12/M02 A3012 RMK A01 T01221021  RH  037%=      5-min Rain = 0
KGU1 131245Z 30007KT 12/M02 A3012 RMK A01 T01211021  RH  037%=      5-min Rain = 0
KGU1 131246Z 30011KT 12/M02 A3012 RMK A01 T01211021  RH  037%=      5-min Rain = 0
KGU1 131247Z 30010KT 12/M02 A3012 RMK A01 T01191020  RH  038%=      5-min Rain = 0
KGU1 131248Z 29013G18KT 12/M02 A3013 RMK A01 T01181020  RH  038%=      5-min Rain = 0
KGU1 131249Z 29014KT 12/M02 A3013 RMK A01 T01191020  RH  038%=      5-min Rain = 0
KGU1 131250Z 31012KT 12/M02 A3013 RMK A01 T01191019  RH  038%=      5-min Rain = 0
KGU1 131251Z 30013G20KT 12/M02 A3013 RMK A01 T01211021  RH  037%=      5-min Rain = 0
KGU1 131252Z 29016KT 12/M02 A3013 RMK A01 T01221021  RH  037%=      5-min Rain = 0
KGU1 131253Z 29014KT 12/M02 A3013 RMK A01 T01221021  RH  037%=      5-min Rain = 0
KGU1 131254Z 30013KT 12/M02 A3013 RMK A01 T01231021  RH  037%=      5-min Rain = 0
KGU1 131255Z 31012KT 12/M02 A3013 RMK A01 T01231021  RH  037%=      5-min Rain = 0
KGU1 131256Z 30013KT 12/M02 A3013 RMK A01 T01221020  RH  037%=      5-min Rain = 0
KGU1 131257Z 30014G19KT 12/M02 A3013 RMK A01 T01211021  RH  037%=      5-min Rain = 0
KGU1 131258Z 30013KT 12/M02 A3013 RMK A01 T01211020  RH  038%=      5-min Rain = 0
KGU1 131259Z 30013KT 12/M02 A3013 RMK A01 T01221021  RH  037%=      5-min Rain = 0
KGU1 131300Z 30011KT 12/M02 A3013 RMK A01 T01221020  RH  037%=      5-min Rain = 0
KGU1 131301Z 30012KT 12/M02 A3013 RMK A01 T01201020  RH  038%=      5-min Rain = 0
KGU1 131302Z 29012KT 12/M02 A3013 RMK A01 T01211021  RH  038%=      5-min Rain = 0
KGU1 131303Z 30013KT 12/M02 A3013 RMK A01 T01211020  RH  038%=      5-min Rain = 0
KGU1 131304Z 31013KT 12/M02 A3013 RMK A01 T01201020  RH  038%=      5-min Rain = 0
KGU1 131305Z 30011KT 12/M02 A3013 RMK A01 T01211021  RH  037%=      5-min Rain = 0
KGU1 131306Z 29014KT 12/M02 A3013 RMK A01 T01211021  RH  037%=      5-min Rain = 0
KGU1 131307Z 29016KT 12/M02 A3013 RMK A01 T01211020  RH  038%=      5-min Rain = 0
KGU1 131308Z 31010KT 12/M02 A3013 RMK A01 T01231021  RH  037%=      5-min Rain = 0
KGU1 131309Z 30010KT 12/M02 A3013 RMK A01 T01231021  RH  037%=      5-min Rain = 0
KGU1 131310Z 30009KT 12/M02 A3013 RMK A01 T01201020  RH  038%=      5-min Rain = 0
KGU1 131311Z 29013KT 12/M02 A3013 RMK A01 T01191019  RH  038%=      5-min Rain = 0
KGU1 131312Z 30012KT 12/M02 A3013 RMK A01 T01191019  RH  038%=      5-min Rain = 0
KGU1 131313Z 29013KT 12/M02 A3013 RMK A01 T01201020  RH  038%=      5-min Rain = 0
KGU1 131314Z 30009KT 12/M02 A3012 RMK A01 T01211021  RH  038%=      5-min Rain = 0
KGU1 131315Z 31008KT 12/M02 A3012 RMK A01 T01211020  RH  038%=      5-min Rain = 0
KGU1 131316Z 32008KT 12/M02 A3012 RMK A01 T01191020  RH  038%=      5-min Rain = 0
KGU1 131317Z 30007KT 12/M02 A3013 RMK A01 T01181020  RH  039%=      5-min Rain = 0
KGU1 131318Z 28013G18KT 12/M02 A3013 RMK A01 T01171020  RH  039%=      5-min Rain = 0
KGU1 131319Z 30010KT 12/M02 A3013 RMK A01 T01191020  RH  038%=      5-min Rain = 0
KGU1 131320Z 29010KT 12/M02 A3013 RMK A01 T01181020  RH  039%=      5-min Rain = 0
KGU1 131321Z 29012G21KT 12/M02 A3013 RMK A01 T01171020  RH  039%=      5-min Rain = 0
KGU1 131322Z 30016KT 12/M02 A3013 RMK A01 T01201022  RH  038%=      5-min Rain = 0
KGU1 131323Z 30014KT 12/M02 A3013 RMK A01 T01241022  RH  037%=      5-min Rain = 0
KGU1 131324Z 30015KT 12/M02 A3013 RMK A01 T01231021  RH  037%=      5-min Rain = 0
KGU1 131325Z 30014G21KT 12/M02 A3013 RMK A01 T01241022  RH  036%=      5-min Rain = 0
KGU1 131326Z 30015G20KT 13/M02 A3013 RMK A01 T01251022  RH  036%=      5-min Rain = 0
KGU1 131327Z 30011G19KT 13/M02 A3013 RMK A01 T01271023  RH  036%=      5-min Rain = 0
KGU1 131328Z 30013G18KT 13/M02 A3013 RMK A01 T01281023  RH  035%=      5-min Rain = 0
KGU1 131329Z 30009KT 13/M02 A3013 RMK A01 T01271022  RH  036%=      5-min Rain = 0
KGU1 131330Z 30012KT 13/M02 A3013 RMK A01 T01251022  RH  036%=      5-min Rain = 0
KGU1 131331Z 29011KT 12/M02 A3013 RMK A01 T01231021  RH  037%=      5-min Rain = 0
KGU1 131332Z 31009KT 12/M02 A3014 RMK A01 T01221021  RH  037%=      5-min Rain = 0
KGU1 131333Z 30011G16KT 12/M02 A3014 RMK A01 T01221021  RH  037%=      5-min Rain = 0
KGU1 131334Z 30010KT 12/M02 A3014 RMK A01 T01221021  RH  037%=      5-min Rain = 0
KGU1 131335Z 30010KT 12/M02 A3014 RMK A01 T01221021  RH  037%=      5-min Rain = 0
KGU1 131336Z 30011KT 12/M02 A3014 RMK A01 T01221021  RH  037%=      5-min Rain = 0
KGU1 131337Z 30008KT 12/M02 A3014 RMK A01 T01221021  RH  037%=      5-min Rain = 0
KGU1 131338Z 30010KT 12/M02 A3014 RMK A01 T01211020  RH  038%=      5-min Rain = 0
KGU1 131339Z 30012KT 12/M02 A3014 RMK A01 T01221022  RH  037%=      5-min Rain = 0
KGU1 131340Z 31010KT 12/M02 A3015 RMK A01 T01241021  RH  037%=      5-min Rain = 0
KGU1 131341Z 30010KT 12/M02 A3015 RMK A01 T01221021  RH  037%=      5-min Rain = 0
KGU1 131342Z 30014KT 12/M02 A3015 RMK A01 T01231021  RH  037%=      5-min Rain = 0
KGU1 131343Z 32009KT 12/M02 A3015 RMK A01 T01241021  RH  037%=      5-min Rain = 0
KGU1 131344Z 33008KT 12/M02 A3015 RMK A01 T01231021  RH  037%=      5-min Rain = 0
KGU1 131345Z 31006KT 12/M02 A3015 RMK A01 T01221021  RH  037%=      5-min Rain = 0
KGU1 131346Z 30013KT 12/M02 A3015 RMK A01 T01221021  RH  037%=      5-min Rain = 0
KGU1 131347Z 30012G18KT 13/M02 A3015 RMK A01 T01251021  RH  037%=      5-min Rain = 0
KGU1 131348Z 30012KT 12/M02 A3015 RMK A01 T01241020  RH  037%=      5-min Rain = 0
KGU1 131349Z 28013KT 12/M02 A3015 RMK A01 T01231020  RH  037%=      5-min Rain = 0
KGU1 131350Z 28013KT 12/M02 A3015 RMK A01 T01231020  RH  037%=      5-min Rain = 0
KGU1 131351Z 29013KT 12/M02 A3015 RMK A01 T01231020  RH  037%=      5-min Rain = 0
KGU1 131352Z 30011KT 12/M02 A3016 RMK A01 T01221020  RH  037%=      5-min Rain = 0
KGU1 131353Z 32007KT 12/M02 A3015 RMK A01 T01231020  RH  037%=      5-min Rain = 0
KGU1 131354Z 31007KT 12/M02 A3015 RMK A01 T01241020  RH  037%=      5-min Rain = 0
KGU1 131355Z 30008KT 12/M02 A3015 RMK A01 T01221019  RH  038%=      5-min Rain = 0
KGU1 131356Z 30010KT 12/M02 A3015 RMK A01 T01211020  RH  038%=      5-min Rain = 0
KGU1 131357Z 29013KT 12/M02 A3015 RMK A01 T01211019  RH  038%=      5-min Rain = 0
KGU1 131358Z 30011KT 12/M02 A3015 RMK A01 T01201017  RH  039%=      5-min Rain = 0
KGU1 131359Z 30008KT 12/M02 A3016 RMK A01 T01201019  RH  038%=      5-min Rain = 0
KGU1 131400Z 30014KT 12/M02 A3016 RMK A01 T01221018  RH  038%=      5-min Rain = 0
KGU1 131401Z 30012KT 12/M02 A3016 RMK A01 T01211018  RH  038%=      5-min Rain = 0
KGU1 131402Z 30009KT 12/M02 A3017 RMK A01 T01211017  RH  039%=      5-min Rain = 0
KGU1 131403Z 29011KT 12/M02 A3017 RMK A01 T01201017  RH  039%=      5-min Rain = 0
KGU1 131404Z 28015G22KT 12/M02 A3017 RMK A01 T01211018  RH  038%=      5-min Rain = 0
KGU1 131405Z 29017G23KT 12/M02 A3017 RMK A01 T01221018  RH  038%=      5-min Rain = 0
KGU1 131406Z 30013KT 12/M02 A3017 RMK A01 T01231017  RH  038%=      5-min Rain = 0
KGU1 131407Z 30011G16KT 12/M02 A3017 RMK A01 T01221017  RH  038%=      5-min Rain = 0
KGU1 131408Z 29013KT 12/M02 A3017 RMK A01 T01221018  RH  038%=      5-min Rain = 0
KGU1 131409Z 31010KT 12/M02 A3017 RMK A01 T01231017  RH  038%=      5-min Rain = 0
KGU1 131410Z 30010KT 12/M02 A3017 RMK A01 T01221017  RH  038%=      5-min Rain = 0
KGU1 131411Z 30010KT 12/M02 A3018 RMK A01 T01221017  RH  038%=      5-min Rain = 0
KGU1 131412Z 31009KT 12/M02 A3018 RMK A01 T01211016  RH  039%=      5-min Rain = 0
KGU1 131413Z 29011KT 12/M02 A3017 RMK A01 T01211016  RH  039%=      5-min Rain = 0
KGU1 131414Z 28013KT 12/M02 A3017 RMK A01 T01221017  RH  038%=      5-min Rain = 0
KGU1 131415Z 30009G14KT 12/M02 A3016 RMK A01 T01231017  RH  038%=      5-min Rain = 0
KGU1 131416Z 30012KT 12/M02 A3016 RMK A01 T01231017  RH  038%=      5-min Rain = 0
KGU1 131417Z 28013KT 12/M02 A3016 RMK A01 T01241017  RH  038%=      5-min Rain = 0
KGU1 131418Z 28012KT 12/M02 A3016 RMK A01 T01241017  RH  038%=      5-min Rain = 0
KGU1 131419Z 29015KT 12/M02 A3016 RMK A01 T01241016  RH  038%=      5-min Rain = 0
KGU1 131420Z 29014KT 12/M02 A3016 RMK A01 T01231017  RH  038%=      5-min Rain = 0
KGU1 131421Z 28016KT 12/M02 A3016 RMK A01 T01241017  RH  038%=      5-min Rain = 0
KGU1 131422Z 28013KT 13/M02 A3015 RMK A01 T01261018  RH  037%=      5-min Rain = 0
KGU1 131423Z 28013G18KT 13/M02 A3015 RMK A01 T01271018  RH  037%=      5-min Rain = 0
KGU1 131424Z 29014KT 13/M02 A3015 RMK A01 T01271017  RH  037%=      5-min Rain = 0
KGU1 131425Z 29010KT 13/M02 A3015 RMK A01 T01271017  RH  037%=      5-min Rain = 0
KGU1 131426Z 29011G16KT 13/M02 A3016 RMK A01 T01271018  RH  037%=      5-min Rain = 0
KGU1 131427Z 29009KT 13/M02 A3016 RMK A01 T01281018  RH  037%=      5-min Rain = 0
KGU1 131428Z 28012G17KT 13/M02 A3016 RMK A01 T01281017  RH  037%=      5-min Rain = 0
KGU1 131429Z 29013G19KT 13/M02 A3016 RMK A01 T01281017  RH  037%=      5-min Rain = 0
KGU1 131430Z 30012KT 13/M02 A3016 RMK A01 T01291018  RH  037%=      5-min Rain = 0
KGU1 131431Z 29011KT 13/M02 A3016 RMK A01 T01291018  RH  036%=      5-min Rain = 0
KGU1 131432Z 29012KT 13/M02 A3016 RMK A01 T01301019  RH  036%=      5-min Rain = 0
KGU1 131433Z 30013KT 13/M02 A3016 RMK A01 T01311018  RH  036%=      5-min Rain = 0
KGU1 131434Z 29011KT 13/M02 A3016 RMK A01 T01301017  RH  036%=      5-min Rain = 0
KGU1 131435Z 29009KT 13/M02 A3016 RMK A01 T01301018  RH  036%=      5-min Rain = 0
KGU1 131436Z 30009KT 13/M02 A3016 RMK A01 T01311018  RH  036%=      5-min Rain = 0
KGU1 131437Z 28011KT 13/M02 A3016 RMK A01 T01311019  RH  036%=      5-min Rain = 0
KGU1 131438Z 28012G17KT 13/M02 A3016 RMK A01 T01321019  RH  035%=      5-min Rain = 0
KGU1 131439Z 30012KT 13/M02 A3016 RMK A01 T01321019  RH  035%=      5-min Rain = 0
KGU1 131440Z 27009KT 13/M02 A3015 RMK A01 T01331017  RH  036%=      5-min Rain = 0
KGU1 131441Z 29014KT 13/M02 A3016 RMK A01 T01321017  RH  036%=      5-min Rain = 0
KGU1 131442Z 30013KT 13/M02 A3016 RMK A01 T01321017  RH  036%=      5-min Rain = 0
KGU1 131443Z 29011KT 13/M02 A3016 RMK A01 T01321017  RH  036%=      5-min Rain = 0
KGU1 131444Z 29009KT 13/M02 A3016 RMK A01 T01321016  RH  036%=      5-min Rain = 0
KGU1 131445Z 28013KT 13/M02 A3016 RMK A01 T01321016  RH  036%=      5-min Rain = 0
KGU1 131446Z 29011KT 13/M02 A3016 RMK A01 T01321016  RH  036%=      5-min Rain = 0
KGU1 131447Z 29010KT 13/M02 A3017 RMK A01 T01321016  RH  036%=      5-min Rain = 0
KGU1 131448Z 30009KT 13/M02 A3017 RMK A01 T01321017  RH  036%=      5-min Rain = 0
KGU1 131449Z 26010KT 13/M02 A3017 RMK A01 T01331016  RH  036%=      5-min Rain = 0
KGU1 131450Z 27010KT 13/M02 A3016 RMK A01 T01341018  RH  035%=      5-min Rain = 0
KGU1 131451Z 29012KT 13/M02 A3017 RMK A01 T01341016  RH  036%=      5-min Rain = 0
KGU1 131452Z 29013KT 13/M02 A3016 RMK A01 T01331015  RH  036%=      5-min Rain = 0
KGU1 131453Z 29009KT 13/M02 A3016 RMK A01 T01331016  RH  036%=      5-min Rain = 0
KGU1 131454Z 28008KT 13/M02 A3016 RMK A01 T01331015  RH  036%=      5-min Rain = 0
KGU1 131455Z 29012KT 13/M02 A3016 RMK A01 T01331015  RH  036%=      5-min Rain = 0
KGU1 131456Z 28013KT 13/M02 A3016 RMK A01 T01331016  RH  036%=      5-min Rain = 0
KGU1 131457Z 28014G20KT 13/M02 A3016 RMK A01 T01331015  RH  036%=      5-min Rain = 0
KGU1 131458Z 28013KT 13/M02 A3017 RMK A01 T01331016  RH  036%=      5-min Rain = 0
KGU1 131459Z 28011KT 13/M01 A3017 RMK A01 T01341013  RH  036%=      5-min Rain = 0
KGU1 131500Z 28013KT 13/M01 A3017 RMK A01 T01341014  RH  036%=      5-min Rain = 0
KGU1 131501Z 28014KT 13/M01 A3017 RMK A01 T01341014  RH  036%=      5-min Rain = 0
KGU1 131502Z 30012KT 13/M01 A3017 RMK A01 T01341013  RH  036%=      5-min Rain = 0
KGU1 131503Z 28015KT 13/M01 A3017 RMK A01 T01341014  RH  036%=      5-min Rain = 0
KGU1 131504Z 28012KT 13/M01 A3017 RMK A01 T01341014  RH  036%=      5-min Rain = 0
KGU1 131505Z 29011KT 13/M01 A3017 RMK A01 T01341013  RH  037%=      5-min Rain = 0
KGU1 131506Z 27008KT 13/M01 A3017 RMK A01 T01341011  RH  037%=      5-min Rain = 0
KGU1 131507Z 27011KT 14/M01 A3017 RMK A01 T01361012  RH  036%=      5-min Rain = 0
KGU1 131508Z 29010KT 14/M01 A3017 RMK A01 T01361013  RH  036%=      5-min Rain = 0
KGU1 131509Z 28012KT 14/M01 A3017 RMK A01 T01361013  RH  036%=      5-min Rain = 0
KGU1 131510Z 28016G21KT 14/M01 A3017 RMK A01 T01351014  RH  036%=      5-min Rain = 0
KGU1 131511Z 28014KT 13/M02 A3017 RMK A01 T01341015  RH  036%=      5-min Rain = 0
KGU1 131512Z 29012KT 13/M02 A3017 RMK A01 T01341016  RH  036%=      5-min Rain = 0
KGU1 131513Z 30011KT 13/M02 A3017 RMK A01 T01331015  RH  036%=      5-min Rain = 0
KGU1 131514Z 30011KT 13/M02 A3017 RMK A01 T01331015  RH  036%=      5-min Rain = 0
KGU1 131515Z 29012KT 13/M02 A3017 RMK A01 T01321015  RH  036%=      5-min Rain = 0
KGU1 131516Z 29013G18KT 13/M01 A3017 RMK A01 T01331014  RH  037%=      5-min Rain = 0
KGU1 131517Z 28011KT 13/M02 A3017 RMK A01 T01321016  RH  036%=      5-min Rain = 0
KGU1 131518Z 29010KT 13/M02 A3017 RMK A01 T01331016  RH  036%=      5-min Rain = 0
KGU1 131519Z 27012G17KT 13/M02 A3017 RMK A01 T01331015  RH  036%=      5-min Rain = 0
KGU1 131520Z 29011KT 13/M02 A3017 RMK A01 T01331016  RH  036%=      5-min Rain = 0
KGU1 131521Z 28011KT 13/M02 A3017 RMK A01 T01331015  RH  036%=      5-min Rain = 0
KGU1 131522Z 28013KT 13/M02 A3017 RMK A01 T01331015  RH  036%=      5-min Rain = 0
KGU1 131523Z 28015G21KT 13/M02 A3017 RMK A01 T01331015  RH  036%=      5-min Rain = 0
KGU1 131524Z 28015KT 13/M02 A3016 RMK A01 T01321017  RH  036%=      5-min Rain = 0
KGU1 131525Z 27013KT 13/M02 A3016 RMK A01 T01321017  RH  036%=      5-min Rain = 0
KGU1 131526Z 28014KT 13/M02 A3016 RMK A01 T01321017  RH  036%=      5-min Rain = 0
KGU1 131527Z 28015KT 13/M02 A3016 RMK A01 T01321017  RH  036%=      5-min Rain = 0
KGU1 131528Z 29012KT 13/M02 A3016 RMK A01 T01321017  RH  036%=      5-min Rain = 0
KGU1 131529Z 27015KT 13/M02 A3016 RMK A01 T01321016  RH  036%=      5-min Rain = 0
KGU1 131530Z 27011KT 13/M02 A3016 RMK A01 T01331017  RH  036%=      5-min Rain = 0
KGU1 131531Z 28015KT 14/M02 A3016 RMK A01 T01351016  RH  036%=      5-min Rain = 0
KGU1 131532Z 28017KT 14/M02 A3016 RMK A01 T01351015  RH  036%=      5-min Rain = 0
KGU1 131533Z 28013KT 14/M02 A3016 RMK A01 T01351016  RH  036%=      5-min Rain = 0
KGU1 131534Z 28014KT 14/M02 A3016 RMK A01 T01351015  RH  036%=      5-min Rain = 0
KGU1 131535Z 29013KT 14/M02 A3016 RMK A01 T01361015  RH  036%=      5-min Rain = 0
KGU1 131536Z 28015KT 14/M02 A3016 RMK A01 T01361015  RH  036%=      5-min Rain = 0
KGU1 131537Z 28018KT 14/M02 A3016 RMK A01 T01361015  RH  036%=      5-min Rain = 0
KGU1 131538Z 29017KT 14/M02 A3016 RMK A01 T01361016  RH  035%=      5-min Rain = 0
KGU1 131539Z 29018G23KT 14/M02 A3016 RMK A01 T01361016  RH  035%=      5-min Rain = 0
KGU1 131540Z 28015KT 14/M02 A3016 RMK A01 T01351015  RH  036%=      5-min Rain = 0
KGU1 131541Z 28014KT 14/M01 A3016 RMK A01 T01361014  RH  036%=      5-min Rain = 0
KGU1 131542Z 28015G20KT 14/M02 A3016 RMK A01 T01361016  RH  035%=      5-min Rain = 0
KGU1 131543Z 29012KT 14/M02 A3016 RMK A01 T01361017  RH  035%=      5-min Rain = 0
KGU1 131544Z 28011G17KT 14/M02 A3016 RMK A01 T01371015  RH  035%=      5-min Rain = 0
KGU1 131545Z 29015KT 14/M02 A3016 RMK A01 T01381015  RH  035%=      5-min Rain = 0
KGU1 131546Z 28015KT 14/M02 A3016 RMK A01 T01381015  RH  035%=      5-min Rain = 0
KGU1 131547Z 28012KT 14/M02 A3016 RMK A01 T01381018  RH  034%=      5-min Rain = 0
KGU1 131548Z 29014KT 14/M02 A3016 RMK A01 T01391015  RH  035%=      5-min Rain = 0
KGU1 131549Z 28014KT 14/M02 A3016 RMK A01 T01391015  RH  035%=      5-min Rain = 0
KGU1 131550Z 28013G18KT 14/M02 A3016 RMK A01 T01391018  RH  034%=      5-min Rain = 0
KGU1 131551Z 28015KT 14/M02 A3016 RMK A01 T01391017  RH  034%=      5-min Rain = 0
KGU1 131552Z 27016KT 14/M02 A3016 RMK A01 T01391018  RH  034%=      5-min Rain = 0
KGU1 131553Z 27016KT 14/M02 A3016 RMK A01 T01401018  RH  034%=      5-min Rain = 0
KGU1 131554Z 28013G18KT 14/M02 A3016 RMK A01 T01401019  RH  034%=      5-min Rain = 0
KGU1 131555Z 28015KT 14/M02 A3016 RMK A01 T01401018  RH  034%=      5-min Rain = 0
KGU1 131556Z 29013KT 14/M02 A3016 RMK A01 T01401018  RH  034%=      5-min Rain = 0
KGU1 131557Z 30014KT 14/M02 A3016 RMK A01 T01401017  RH  034%=      5-min Rain = 0
KGU1 131558Z 27013G18KT 14/M02 A3016 RMK A01 T01391017  RH  034%=      5-min Rain = 0
KGU1 131559Z 27013G19KT 14/M02 A3016 RMK A01 T01401017  RH  034%=      5-min Rain = 0
KGU1 131600Z 27013KT 14/M02 A3016 RMK A01 T01401016  RH  034%=      5-min Rain = 0
KGU1 131601Z 29013G18KT 14/M02 A3016 RMK A01 T01411017  RH  034%=      5-min Rain = 0
KGU1 131602Z 28016KT 14/M02 A3016 RMK A01 T01411016  RH  034%=      5-min Rain = 0
KGU1 131603Z 27018KT 14/M02 A3016 RMK A01 T01401020  RH  033%=      5-min Rain = 0
KGU1 131604Z 26015G21KT 14/M02 A3016 RMK A01 T01401020  RH  033%=      5-min Rain = 0
KGU1 131605Z 26016G21KT 14/M02 A3016 RMK A01 T01401019  RH  033%=      5-min Rain = 0
KGU1 131606Z 28010KT 14/M02 A3016 RMK A01 T01401019  RH  034%=      5-min Rain = 0
KGU1 131607Z 27012KT 14/M01 A3016 RMK A01 T01401012  RH  035%=      5-min Rain = 0
KGU1 131608Z 28011KT 14/M01 A3016 RMK A01 T01381012  RH  036%=      5-min Rain = 0
KGU1 131609Z 28016G23KT 14/M02 A3016 RMK A01 T01391015  RH  035%=      5-min Rain = 0
KGU1 131610Z 27016KT 14/M02 A3016 RMK A01 T01401018  RH  034%=      5-min Rain = 0
KGU1 131611Z 28016KT 14/M02 A3016 RMK A01 T01401018  RH  034%=      5-min Rain = 0
KGU1 131612Z 27017KT 14/M02 A3015 RMK A01 T01391016  RH  034%=      5-min Rain = 0
KGU1 131613Z 27014KT 14/M02 A3016 RMK A01 T01391017  RH  034%=      5-min Rain = 0
KGU1 131614Z 28014G20KT 14/M02 A3016 RMK A01 T01401016  RH  034%=      5-min Rain = 0
KGU1 131615Z 28014KT 14/M02 A3016 RMK A01 T01411016  RH  034%=      5-min Rain = 0
KGU1 131616Z 28017KT 14/M02 A3016 RMK A01 T01421016  RH  034%=      5-min Rain = 0
KGU1 131617Z 29016G21KT 14/M02 A3016 RMK A01 T01411018  RH  034%=      5-min Rain = 0
KGU1 131618Z 28011KT 14/M02 A3016 RMK A01 T01411018  RH  034%=      5-min Rain = 0
KGU1 131619Z 27013G19KT 14/M01 A3016 RMK A01 T01411014  RH  035%=      5-min Rain = 0
KGU1 131620Z 28010KT 14/M01 A3016 RMK A01 T01411011  RH  035%=      5-min Rain = 0
KGU1 131621Z 27011KT 14/M01 A3016 RMK A01 T01411014  RH  035%=      5-min Rain = 0
KGU1 131622Z 28014KT 14/M01 A3016 RMK A01 T01411012  RH  035%=      5-min Rain = 0
KGU1 131623Z 27015KT 14/M01 A3016 RMK A01 T01431014  RH  034%=      5-min Rain = 0
KGU1 131624Z 27015G20KT 14/M02 A3016 RMK A01 T01431017  RH  033%=      5-min Rain = 0
KGU1 131625Z 27016KT 14/M02 A3016 RMK A01 T01421019  RH  033%=      5-min Rain = 0
KGU1 131626Z 28015G21KT 14/M02 A3016 RMK A01 T01421018  RH  033%=      5-min Rain = 0
KGU1 131627Z 27015KT 14/M02 A3016 RMK A01 T01421018  RH  033%=      5-min Rain = 0
KGU1 131628Z 28016G22KT 14/M02 A3016 RMK A01 T01431015  RH  034%=      5-min Rain = 0
KGU1 131629Z 29010KT 14/M02 A3016 RMK A01 T01401015  RH  035%=      5-min Rain = 0
KGU1 131630Z 27014KT 14/M01 A3016 RMK A01 T01401010  RH  036%=      5-min Rain = 0
KGU1 131631Z 29015KT 14/M02 A3017 RMK A01 T01421015  RH  034%=      5-min Rain = 0
KGU1 131632Z 27018KT 14/M02 A3017 RMK A01 T01431017  RH  034%=      5-min Rain = 0
KGU1 131633Z 29014G19KT 14/M02 A3017 RMK A01 T01421017  RH  034%=      5-min Rain = 0
KGU1 131634Z 27017KT 14/M02 A3017 RMK A01 T01421016  RH  034%=      5-min Rain = 0
KGU1 131635Z 28019KT 14/M02 A3017 RMK A01 T01441016  RH  033%=      5-min Rain = 0
KGU1 131636Z 27019G24KT 14/M02 A3017 RMK A01 T01441018  RH  033%=      5-min Rain = 0
KGU1 131637Z 28020G29KT 14/M02 A3017 RMK A01 T01421019  RH  033%=      5-min Rain = 0
KGU1 131638Z 28018G23KT 14/M02 A3017 RMK A01 T01411018  RH  034%=      5-min Rain = 0
KGU1 131639Z 27018G26KT 14/M02 A3017 RMK A01 T01411018  RH  034%=      5-min Rain = 0
KGU1 131640Z 28017G23KT 14/M02 A3017 RMK A01 T01411017  RH  034%=      5-min Rain = 0
KGU1 131641Z 28017KT 14/M02 A3017 RMK A01 T01411017  RH  034%=      5-min Rain = 0
KGU1 131642Z 28014KT 14/M01 A3017 RMK A01 T01421014  RH  034%=      5-min Rain = 0
KGU1 131643Z 28015KT 14/M02 A3017 RMK A01 T01441015  RH  034%=      5-min Rain = 0
KGU1 131644Z 28013G19KT 14/M02 A3017 RMK A01 T01441015  RH  034%=      5-min Rain = 0
KGU1 131645Z 29017KT 14/M01 A3017 RMK A01 T01441014  RH  034%=      5-min Rain = 0
KGU1 131646Z 29015KT 14/M02 A3017 RMK A01 T01431015  RH  034%=      5-min Rain = 0
KGU1 131647Z 29011G16KT 14/M01 A3017 RMK A01 T01441014  RH  034%=      5-min Rain = 0
KGU1 131648Z 27014KT 15/M02 A3017 RMK A01 T01451016  RH  033%=      5-min Rain = 0
KGU1 131649Z 28014KT 15/M02 A3017 RMK A01 T01451017  RH  033%=      5-min Rain = 0
KGU1 131650Z 28018KT 15/M02 A3017 RMK A01 T01461015  RH  033%=      5-min Rain = 0
KGU1 131651Z 28017KT 15/M02 A3017 RMK A01 T01461016  RH  033%=      5-min Rain = 0
KGU1 131652Z 29016G21KT 15/M02 A3017 RMK A01 T01451016  RH  033%=      5-min Rain = 0
KGU1 131653Z 28013KT 15/M02 A3016 RMK A01 T01461015  RH  033%=      5-min Rain = 0
KGU1 131654Z 28016KT 15/M02 A3016 RMK A01 T01461016  RH  033%=      5-min Rain = 0
KGU1 131655Z 29011G16KT 15/M02 A3016 RMK A01 T01461018  RH  032%=      5-min Rain = 0
KGU1 131656Z 28015KT 15/M02 A3016 RMK A01 T01471018  RH  032%=      5-min Rain = 0
KGU1 131657Z 28015G21KT 15/M02 A3016 RMK A01 T01491017  RH  032%=      5-min Rain = 0
KGU1 131658Z 30018KT 15/M02 A3016 RMK A01 T01491019  RH  032%=      5-min Rain = 0
KGU1 131659Z 28016G21KT 15/M02 A3016 RMK A01 T01501018  RH  032%=      5-min Rain = 0
KGU1 131700Z 29015G20KT 15/M02 A3017 RMK A01 T01501019  RH  031%=      5-min Rain = 0
KGU1 131701Z 25015KT 15/M02 A3016 RMK A01 T01491022  RH  031%=      5-min Rain = 0
KGU1 131702Z 26010G15KT 15/M02 A3016 RMK A01 T01481023  RH  031%=      5-min Rain = 0
KGU1 131703Z 29008G13KT 15/M02 A3017 RMK A01 T01491017  RH  032%=      5-min Rain = 0
KGU1 131704Z 29014G20KT 15/M02 A3017 RMK A01 T01511018  RH  032%=      5-min Rain = 0
KGU1 131705Z 29012KT 15/M02 A3016 RMK A01 T01501018  RH  032%=      5-min Rain = 0
KGU1 131706Z 28015KT 15/M02 A3016 RMK A01 T01501019  RH  032%=      5-min Rain = 0
KGU1 131707Z 28014KT 15/M02 A3016 RMK A01 T01491020  RH  031%=      5-min Rain = 0
KGU1 131708Z 25013KT 15/M02 A3015 RMK A01 T01501020  RH  031%=      5-min Rain = 0
KGU1 131709Z 26013G18KT 15/M02 A3016 RMK A01 T01501019  RH  031%=      5-min Rain = 0
KGU1 131710Z 27020G26KT 15/M02 A3016 RMK A01 T01501020  RH  031%=      5-min Rain = 0
KGU1 131711Z 27020KT 15/M02 A3016 RMK A01 T01491021  RH  031%=      5-min Rain = 0
KGU1 131712Z 27017KT 15/M02 A3016 RMK A01 T01491021  RH  031%=      5-min Rain = 0
KGU1 131713Z 27016KT 15/M02 A3016 RMK A01 T01481019  RH  032%=      5-min Rain = 0
KGU1 131714Z 28019KT 15/M02 A3016 RMK A01 T01501018  RH  032%=      5-min Rain = 0
KGU1 131715Z 27024G30KT 15/M02 A3016 RMK A01 T01501020  RH  031%=      5-min Rain = 0
KGU1 131716Z 26016G26KT 15/M02 A3015 RMK A01 T01491023  RH  031%=      5-min Rain = 0
KGU1 131717Z 29019G31KT 15/M02 A3016 RMK A01 T01471023  RH  031%=      5-min Rain = 0
KGU1 131718Z 27014G19KT 15/M02 A3016 RMK A01 T01461019  RH  032%=      5-min Rain = 0
KGU1 131719Z 28017G22KT 15/M02 A3016 RMK A01 T01461017  RH  033%=      5-min Rain = 0
KGU1 131720Z 28017KT 15/M02 A3016 RMK A01 T01481019  RH  032%=      5-min Rain = 0
KGU1 131721Z 28014KT 15/M02 A3016 RMK A01 T01491018  RH  032%=      5-min Rain = 0
KGU1 131722Z 29016G21KT 15/M02 A3016 RMK A01 T01511017  RH  032%=      5-min Rain = 0
KGU1 131723Z 28012KT 15/M02 A3016 RMK A01 T01511017  RH  032%=      5-min Rain = 0
KGU1 131724Z 29013KT 15/M02 A3016 RMK A01 T01511017  RH  032%=      5-min Rain = 0
KGU1 131725Z 28017G25KT 15/M02 A3016 RMK A01 T01521017  RH  031%=      5-min Rain = 0
KGU1 131726Z 28020G27KT 15/M02 A3016 RMK A01 T01521019  RH  031%=      5-min Rain = 0
KGU1 131727Z 28017KT 15/M02 A3015 RMK A01 T01501020  RH  031%=      5-min Rain = 0
KGU1 131728Z 30017G23KT 15/M02 A3016 RMK A01 T01511018  RH  031%=      5-min Rain = 0
KGU1 131729Z 29015G21KT 15/M02 A3015 RMK A01 T01511020  RH  031%=      5-min Rain = 0
KGU1 131730Z 28019G27KT 15/M02 A3015 RMK A01 T01491020  RH  031%=      5-min Rain = 0
KGU1 131731Z 27015G21KT 15/M02 A3015 RMK A01 T01491021  RH  031%=      5-min Rain = 0
KGU1 131732Z 27017G22KT 15/M02 A3014 RMK A01 T01501018  RH  032%=      5-min Rain = 0
KGU1 131733Z 27014KT 15/M02 A3014 RMK A01 T01511020  RH  031%=      5-min Rain = 0
KGU1 131734Z 28013G20KT 15/M02 A3014 RMK A01 T01521020  RH  031%=      5-min Rain = 0
KGU1 131735Z 28022G27KT 15/M02 A3014 RMK A01 T01521020  RH  031%=      5-min Rain = 0
KGU1 131736Z 28018G23KT 15/M02 A3014 RMK A01 T01521021  RH  031%=      5-min Rain = 0
KGU1 131737Z 26017G23KT 15/M02 A3014 RMK A01 T01531023  RH  030%=      5-min Rain = 0
KGU1 131738Z 28015G21KT 15/M02 A3014 RMK A01 T01531022  RH  030%=      5-min Rain = 0
KGU1 131739Z 28020KT 15/M02 A3013 RMK A01 T01541022  RH  030%=      5-min Rain = 0
KGU1 131740Z 29020G28KT 15/M02 A3014 RMK A01 T01541023  RH  030%=      5-min Rain = 0
KGU1 131741Z 27017KT 15/M02 A3013 RMK A01 T01541021  RH  030%=      5-min Rain = 0
KGU1 131742Z 27019G25KT 15/M02 A3014 RMK A01 T01541020  RH  030%=      5-min Rain = 0
KGU1 131743Z 26014G20KT 15/M02 A3013 RMK A01 T01521022  RH  030%=      5-min Rain = 0
KGU1 131744Z 27015G21KT 15/M02 A3013 RMK A01 T01521023  RH  030%=      5-min Rain = 0
KGU1 131745Z 28024G32KT 15/M02 A3013 RMK A01 T01531022  RH  030%=      5-min Rain = 0
KGU1 131746Z 27017G26KT 15/M02 A3013 RMK A01 T01541021  RH  030%=      5-min Rain = 0
KGU1 131747Z 27014G19KT 15/M02 A3013 RMK A01 T01541021  RH  030%=      5-min Rain = 0
KGU1 131748Z 29018G25KT 15/M02 A3013 RMK A01 T01531017  RH  031%=      5-min Rain = 0
KGU1 131749Z 26011G17KT 15/M02 A3013 RMK A01 T01531019  RH  031%=      5-min Rain = 0
KGU1 131750Z 26015KT 15/M02 A3013 RMK A01 T01531018  RH  031%=      5-min Rain = 0
KGU1 131751Z 27017G22KT 15/M01 A3013 RMK A01 T01501011  RH  033%=      5-min Rain = 0
KGU1 131752Z 28018KT 15/M02 A3012 RMK A01 T01501016  RH  032%=      5-min Rain = 0
KGU1 131753Z 28024KT 15/M02 A3013 RMK A01 T01511021  RH  031%=      5-min Rain = 0
KGU1 131754Z 27016G25KT 15/M02 A3012 RMK A01 T01531023  RH  030%=      5-min Rain = 0
KGU1 131755Z 29016G25KT 15/M02 A3012 RMK A01 T01541022  RH  030%=      5-min Rain = 0
KGU1 131756Z 27020G28KT 16/M02 A3012 RMK A01 T01551017  RH  031%=      5-min Rain = 0
KGU1 131757Z 28020G28KT 15/M02 A3012 RMK A01 T01541018  RH  031%=      5-min Rain = 0
KGU1 131758Z 28016G23KT 15/M02 A3011 RMK A01 T01541021  RH  030%=      5-min Rain = 0
KGU1 131759Z 29020G28KT 15/M02 A3012 RMK A01 T01541017  RH  031%=      5-min Rain = 0
KGU1 131800Z 30016G23KT 16/M02 A3012 RMK A01 T01561019  RH  030%=      5-min Rain = 0
KGU1 131801Z 26015G20KT 16/M02 A3011 RMK A01 T01591019  RH  030%=      5-min Rain = 0
KGU1 131802Z 27019G24KT 16/M02 A3011 RMK A01 T01601021  RH  029%=      5-min Rain = 0
KGU1 131803Z 28020G29KT 16/M02 A3011 RMK A01 T01601021  RH  029%=      5-min Rain = 0
KGU1 131804Z 26024G33KT 16/M02 A3011 RMK A01 T01601023  RH  029%=      5-min Rain = 0
KGU1 131805Z 27015G27KT 16/M02 A3011 RMK A01 T01571022  RH  029%=      5-min Rain = 0
KGU1 131806Z 28022KT 16/M02 A3012 RMK A01 T01581018  RH  030%=      5-min Rain = 0
KGU1 131807Z 29018G26KT 16/M02 A3012 RMK A01 T01591021  RH  029%=      5-min Rain = 0
KGU1 131808Z 30025G37KT 16/M02 A3013 RMK A01 T01581024  RH  029%=      5-min Rain = 0
KGU1 131809Z 29015KT 16/M03 A3012 RMK A01 T01571025  RH  029%=      5-min Rain = 0
KGU1 131810Z 28024G29KT 16/M02 A3011 RMK A01 T01581022  RH  029%=      5-min Rain = 0
KGU1 131811Z 29022G29KT 16/M02 A3012 RMK A01 T01571021  RH  030%=      5-min Rain = 0
KGU1 131812Z 29022G29KT 16/M02 A3012 RMK A01 T01591022  RH  029%=      5-min Rain = 0
KGU1 131813Z 29016G21KT 16/M02 A3011 RMK A01 T01591021  RH  029%=      5-min Rain = 0
KGU1 131814Z 29017G27KT 16/M02 A3011 RMK A01 T01611020  RH  029%=      5-min Rain = 0
KGU1 131815Z 28022G30KT 16/M02 A3011 RMK A01 T01621020  RH  029%=      5-min Rain = 0
KGU1 131816Z 29023G29KT 16/M02 A3011 RMK A01 T01621020  RH  029%=      5-min Rain = 0
KGU1 131817Z 29021G28KT 16/M02 A3011 RMK A01 T01601021  RH  029%=      5-min Rain = 0
KGU1 131818Z 27025G31KT 16/M02 A301 RMK A01 T01591022  RH  029%=      5-min Rain = 0
KGU1 131819Z 28026G33KT 16/M02 A3011 RMK A01 T01581022  RH  029%=      5-min Rain = 0
KGU1 131820Z 28025G32KT 16/M02 A3011 RMK A01 T01591020  RH  029%=      5-min Rain = 0
KGU1 131821Z 29022KT 16/M02 A3011 RMK A01 T01581021  RH  029%=      5-min Rain = 0
KGU1 131822Z 28022G27KT 16/M02 A3011 RMK A01 T01581020  RH  030%=      5-min Rain = 0
KGU1 131823Z 27018G28KT 16/M02 A301 RMK A01 T01571020  RH  030%=      5-min Rain = 0
KGU1 131824Z 27022G28KT 16/M02 A301 RMK A01 T01581022  RH  029%=      5-min Rain = 0
KGU1 131825Z 26016G21KT 16/M02 A301 RMK A01 T01571016  RH  031%=      5-min Rain = 0
KGU1 131826Z 28016KT 16/M02 A301 RMK A01 T01581015  RH  031%=      5-min Rain = 0
KGU1 131827Z 27019G24KT 16/M02 A301 RMK A01 T01591017  RH  030%=      5-min Rain = 0
KGU1 131828Z 27019G25KT 16/M02 A301 RMK A01 T01601017  RH  030%=      5-min Rain = 0
KGU1 131829Z 29020G25KT 16/M02 A301 RMK A01 T01591017  RH  030%=      5-min Rain = 0
KGU1 131830Z 27020G28KT 16/M02 A301 RMK A01 T01591019  RH  030%=      5-min Rain = 0
KGU1 131831Z 28024G30KT 16/M02 A301 RMK A01 T01601020  RH  029%=      5-min Rain = 0
KGU1 131832Z 28024G30KT 16/M02 A301 RMK A01 T01621020  RH  029%=      5-min Rain = 0
KGU1 131833Z 28021G27KT 16/M02 A301 RMK A01 T01631019  RH  029%=      5-min Rain = 0
KGU1 131834Z 29014G20KT 16/M02 A301 RMK A01 T01631019  RH  029%=      5-min Rain = 0
KGU1 131835Z 29018KT 16/M02 A301 RMK A01 T01631017  RH  029%=      5-min Rain = 0
KGU1 131836Z 28023G29KT 16/M02 A301 RMK A01 T01631017  RH  029%=      5-min Rain = 0
KGU1 131837Z 28029G38KT 16/M02 A301 RMK A01 T01621020  RH  029%=      5-min Rain = 0
KGU1 131838Z 29025G33KT 16/M02 A301 RMK A01 T01591022  RH  029%=      5-min Rain = 0
KGU1 131839Z 29021G26KT 16/M02 A301 RMK A01 T01581021  RH  030%=      5-min Rain = 0
KGU1 131840Z 29025G31KT 16/M02 A301 RMK A01 T01571019  RH  030%=      5-min Rain = 0
KGU1 131841Z 30020G32KT 16/M02 A301 RMK A01 T01561021  RH  030%=      5-min Rain = 0
KGU1 131842Z 29021G26KT 15/M02 A301 RMK A01 T01531020  RH  031%=      5-min Rain = 0
KGU1 131843Z 29024G32KT 15/M02 A301 RMK A01 T01521018  RH  031%=      5-min Rain = 0
KGU1 131844Z 29017KT 15/M02 A301 RMK A01 T01521016  RH  032%=      5-min Rain = 0
KGU1 131845Z 29023KT 15/M02 A301 RMK A01 T01541015  RH  032%=      5-min Rain = 0
KGU1 131846Z 28022G29KT 15/M02 A301 RMK A01 T01531018  RH  031%=      5-min Rain = 0
KGU1 131847Z 29025G32KT 15/M02 A301 RMK A01 T01521018  RH  031%=      5-min Rain = 0
KGU1 131848Z 29020G29KT 15/M02 A301 RMK A01 T01521016  RH  032%=      5-min Rain = 0
KGU1 131849Z 29024G31KT 16/M02 A301 RMK A01 T01551015  RH  031%=      5-min Rain = 0
KGU1 131850Z 30021G29KT 16/M02 A301 RMK A01 T01561017  RH  031%=      5-min Rain = 0
KGU1 131851Z 28025G38KT 16/M02 A301 RMK A01 T01551016  RH  031%=      5-min Rain = 0
KGU1 131852Z 29028G37KT 16/M02 A301 RMK A01 T01561018  RH  031%=      5-min Rain = 0
KGU1 131853Z 28020G26KT 16/M02 A301 RMK A01 T01551016  RH  031%=      5-min Rain = 0
KGU1 131854Z 30021G27KT 16/M02 A301 RMK A01 T01551017  RH  031%=      5-min Rain = 0
KGU1 131855Z 28025G35KT 15/M02 A301 RMK A01 T01541017  RH  031%=      5-min Rain = 0
KGU1 131856Z 29017G22KT 16/M02 A301 RMK A01 T01551015  RH  032%=      5-min Rain = 0
KGU1 131857Z 29024G31KT 16/M01 A301 RMK A01 T01561014  RH  031%=      5-min Rain = 0
KGU1 131858Z 28024G30KT 16/M02 A301 RMK A01 T01571015  RH  031%=      5-min Rain = 0
KGU1 131859Z 29024G30KT 16/M02 A301 RMK A01 T01561015  RH  031%=      5-min Rain = 0
KGU1 131900Z 29025G31KT 16/M02 A301 RMK A01 T01561015  RH  031%=      5-min Rain = 0
KGU1 131901Z 29023G30KT 16/M01 A301 RMK A01 T01551014  RH  032%=      5-min Rain = 0
KGU1 131902Z 28025G35KT 16/M02 A301 RMK A01 T01551015  RH  031%=      5-min Rain = 0
KGU1 131903Z 28019KT 16/M02 A3009 RMK A01 T01551015  RH  031%=      5-min Rain = 0
KGU1 131904Z 29021G30KT 15/M02 A301 RMK A01 T01541015  RH  032%=      5-min Rain = 0
KGU1 131905Z 28024G33KT 15/M01 A3009 RMK A01 T01541014  RH  032%=      5-min Rain = 0
KGU1 131906Z 29021G28KT 15/M01 A3009 RMK A01 T01541013  RH  032%=      5-min Rain = 0
KGU1 131907Z 29021KT 16/M01 A3009 RMK A01 T01551014  RH  032%=      5-min Rain = 0
KGU1 131908Z 29023G28KT 16/M02 A3009 RMK A01 T01551015  RH  031%=      5-min Rain = 0
KGU1 131909Z 29021G30KT 15/M02 A3009 RMK A01 T01541015  RH  032%=      5-min Rain = 0
KGU1 131910Z 28018G26KT 15/M02 A3009 RMK A01 T01541015  RH  031%=      5-min Rain = 0
KGU1 131911Z 29022G32KT 16/M01 A3009 RMK A01 T01571014  RH  031%=      5-min Rain = 0
KGU1 131912Z 28023G31KT 16/M01 A3009 RMK A01 T01571014  RH  031%=      5-min Rain = 0
KGU1 131913Z 29025G32KT 16/M02 A3009 RMK A01 T01581016  RH  030%=      5-min Rain = 0
KGU1 131914Z 29026G34KT 16/M02 A301 RMK A01 T01561017  RH  031%=      5-min Rain = 0
KGU1 131915Z 29019G27KT 16/M01 A3009 RMK A01 T01561014  RH  031%=      5-min Rain = 0
KGU1 131916Z 29016G23KT 16/M01 A3009 RMK A01 T01571014  RH  031%=      5-min Rain = 0
KGU1 131917Z 29021G27KT 16/M02 A3009 RMK A01 T01581015  RH  031%=      5-min Rain = 0
KGU1 131918Z 28025G34KT 16/M02 A3009 RMK A01 T01581015  RH  031%=      5-min Rain = 0
KGU1 131919Z 28025G31KT 16/M02 A3009 RMK A01 T01581015  RH  031%=      5-min Rain = 0
KGU1 131920Z 28023KT 16/M02 A3009 RMK A01 T01571015  RH  031%=      5-min Rain = 0
KGU1 131921Z 29025G37KT 16/M01 A301 RMK A01 T01551014  RH  032%=      5-min Rain = 0
KGU1 131922Z 29023G30KT 15/M01 A301 RMK A01 T01541014  RH  032%=      5-min Rain = 0
KGU1 131923Z 28022G28KT 15/M01 A3009 RMK A01 T01531014  RH  032%=      5-min Rain = 0
KGU1 131924Z 29018KT 15/M01 A301 RMK A01 T01541014  RH  032%=      5-min Rain = 0
KGU1 131925Z 28017KT 15/M01 A301 RMK A01 T01541013  RH  032%=      5-min Rain = 0
KGU1 131926Z 28020G26KT 15/M01 A301 RMK A01 T01541013  RH  032%=      5-min Rain = 0
KGU1 131927Z 29018G23KT 15/M01 A301 RMK A01 T01521011  RH  033%=      5-min Rain = 0
KGU1 131928Z 30016KT 15/M01 A301 RMK A01 T01521012  RH  033%=      5-min Rain = 0
KGU1 131929Z 29020G27KT 15/M01 A301 RMK A01 T01521011  RH  033%=      5-min Rain = 0
KGU1 131930Z 28020G25KT 15/M01 A301 RMK A01 T01521011  RH  033%=      5-min Rain = 0
KGU1 131931Z 28020G25KT 15/M01 A3009 RMK A01 T01531011  RH  033%=      5-min Rain = 0
KGU1 131932Z 28020G30KT 15/M01 A3009 RMK A01 T01531011  RH  033%=      5-min Rain = 0
KGU1 131933Z 29024G32KT 15/M01 A3009 RMK A01 T01521011  RH  033%=      5-min Rain = 0
KGU1 131934Z 29022G28KT 15/M01 A301 RMK A01 T01501013  RH  033%=      5-min Rain = 0
KGU1 131935Z 29019G31KT 15/M01 A3009 RMK A01 T01491011  RH  034%=      5-min Rain = 0
KGU1 131936Z 29024G32KT 15/M01 A3009 RMK A01 T01481011  RH  034%=      5-min Rain = 0
KGU1 131937Z 29024G29KT 15/M01 A3009 RMK A01 T01471011  RH  034%=      5-min Rain = 0
KGU1 131938Z 29020G26KT 15/M01 A3009 RMK A01 T01461011  RH  034%=      5-min Rain = 0
KGU1 131939Z 28020G25KT 15/M01 A3009 RMK A01 T01461011  RH  034%=      5-min Rain = 0
KGU1 131940Z 29019G24KT 15/M01 A3009 RMK A01 T01461011  RH  034%=      5-min Rain = 0
KGU1 131941Z 28021KT 15/M01 A3009 RMK A01 T01471010  RH  034%=      5-min Rain = 0
KGU1 131942Z 28023KT 15/M01 A3008 RMK A01 T01471011  RH  034%=      5-min Rain = 0
KGU1 131943Z 29024G30KT 15/M01 A3009 RMK A01 T01461010  RH  035%=      5-min Rain = 0
KGU1 131944Z 29022G28KT 15/M01 A3009 RMK A01 T01451010  RH  035%=      5-min Rain = 0
KGU1 131945Z 28022KT 15/M01 A3008 RMK A01 T01461010  RH  035%=      5-min Rain = 0
KGU1 131946Z 29017G23KT 15/M01 A3008 RMK A01 T01471009  RH  035%=      5-min Rain = 0
KGU1 131947Z 29020G26KT 15/M01 A3008 RMK A01 T01471010  RH  034%=      5-min Rain = 0
KGU1 131948Z 29021G31KT 15/M01 A3008 RMK A01 T01481011  RH  034%=      5-min Rain = 0
KGU1 131949Z 29021G28KT 15/M01 A3008 RMK A01 T01491012  RH  033%=      5-min Rain = 0
KGU1 131950Z 28029G34KT 15/M01 A3008 RMK A01 T01481012  RH  034%=      5-min Rain = 0
KGU1 131951Z 27020G26KT 15/M01 A3008 RMK A01 T01471010  RH  034%=      5-min Rain = 0
KGU1 131952Z 28016G26KT 15/M01 A3008 RMK A01 T01481009  RH  034%=      5-min Rain = 0
KGU1 131953Z 29016G22KT 15/M01 A3008 RMK A01 T01491007  RH  035%=      5-min Rain = 0
KGU1 131954Z 28017KT 15/M01 A3008 RMK A01 T01491008  RH  035%=      5-min Rain = 0
KGU1 131955Z 28021G26KT 15/M01 A3008 RMK A01 T01491008  RH  034%=      5-min Rain = 0
KGU1 131956Z 28021G29KT 15/M01 A3008 RMK A01 T01491009  RH  034%=      5-min Rain = 0
KGU1 131957Z 29020G26KT 15/M01 A3008 RMK A01 T01501010  RH  034%=      5-min Rain = 0
KGU1 131958Z 28017KT 15/M01 A3008 RMK A01 T01511009  RH  034%=      5-min Rain = 0
KGU1 131959Z 28023G28KT 15/M01 A3008 RMK A01 T01521009  RH  034%=      5-min Rain = 0
KGU1 132000Z 28020KT 15/M01 A3008 RMK A01 T01511009  RH  034%=      5-min Rain = 0
KGU1 132001Z 29022G30KT 15/M01 A3008 RMK A01 T01521008  RH  034%=      5-min Rain = 0
KGU1 132002Z 28020KT 15/M01 A3008 RMK A01 T01511007  RH  034%=      5-min Rain = 0
KGU1 132003Z 29018G25KT 15/M01 A3008 RMK A01 T01511007  RH  034%=      5-min Rain = 0
KGU1 132004Z 28018KT 15/M01 A3008 RMK A01 T01521007  RH  034%=      5-min Rain = 0
KGU1 132005Z 28021G28KT 15/M01 A3008 RMK A01 T01541008  RH  033%=      5-min Rain = 0
KGU1 132006Z 28023KT 15/M01 A3008 RMK A01 T01541010  RH  033%=      5-min Rain = 0
KGU1 132007Z 28021G26KT 15/M01 A3007 RMK A01 T01521010  RH  033%=      5-min Rain = 0
KGU1 132008Z 29017KT 15/M01 A3008 RMK A01 T01531009  RH  033%=      5-min Rain = 0
KGU1 132009Z 28024G29KT 15/M01 A3008 RMK A01 T01541009  RH  033%=      5-min Rain = 0
KGU1 132010Z 28027KT 15/M01 A3008 RMK A01 T01531010  RH  033%=      5-min Rain = 0
KGU1 132011Z 28023G30KT 15/M01 A3008 RMK A01 T01521010  RH  033%=      5-min Rain = 0
KGU1 132012Z 29023G29KT 15/M01 A3008 RMK A01 T01521009  RH  034%=      5-min Rain = 0
KGU1 132013Z 29020G30KT 15/M01 A3008 RMK A01 T01521009  RH  033%=      5-min Rain = 0
KGU1 132014Z 29016KT 15/M01 A3008 RMK A01 T01531007  RH  034%=      5-min Rain = 0
KGU1 132015Z 28023G29KT 16/M01 A3008 RMK A01 T01551007  RH  033%=      5-min Rain = 0
KGU1 132016Z 28024G29KT 16/M01 A3008 RMK A01 T01561008  RH  033%=      5-min Rain = 0
KGU1 132017Z 28020G26KT 16/M01 A3008 RMK A01 T01581007  RH  033%=      5-min Rain = 0
KGU1 132018Z 28022KT 16/M01 A3008 RMK A01 T01591005  RH  033%=      5-min Rain = 0
KGU1 132019Z 28023G30KT 16/M01 A3008 RMK A01 T01601005  RH  033%=      5-min Rain = 0
KGU1 132020Z 29023G31KT 16/M01 A3008 RMK A01 T01601005  RH  033%=      5-min Rain = 0
KGU1 132021Z 29020KT 16/M01 A3008 RMK A01 T01581006  RH  033%=      5-min Rain = 0
KGU1 132022Z 29017G26KT 16/M00 A3008 RMK A01 T01591003  RH  033%=      5-min Rain = 0
KGU1 132023Z 28024KT 16/M01 A3008 RMK A01 T01611005  RH  033%=      5-min Rain = 0
KGU1 132024Z 28019G25KT 16/M01 A3008 RMK A01 T01591005  RH  033%=      5-min Rain = 0
KGU1 132025Z 29022G27KT 16/M01 A3008 RMK A01 T01591006  RH  033%=      5-min Rain = 0
KGU1 132026Z 29021KT 16/M01 A3008 RMK A01 T01581007  RH  033%=      5-min Rain = 0
KGU1 132027Z 30023G29KT 16/M01 A3008 RMK A01 T01581005  RH  033%=      5-min Rain = 0
KGU1 132028Z 27023G29KT 16/M01 A3007 RMK A01 T01591007  RH  033%=      5-min Rain = 0
KGU1 132029Z 28023G29KT 16/M01 A3007 RMK A01 T01591010  RH  032%=      5-min Rain = 0
KGU1 132030Z 28020G25KT 16/M01 A3008 RMK A01 T01571008  RH  033%=      5-min Rain = 0
KGU1 132031Z 28027G33KT 16/M01 A3008 RMK A01 T01561008  RH  033%=      5-min Rain = 0
KGU1 132032Z 28027G33KT 15/M01 A3008 RMK A01 T01541008  RH  033%=      5-min Rain = 0
KGU1 132033Z 28025G35KT 15/M01 A3008 RMK A01 T01531008  RH  033%=      5-min Rain = 0
KGU1 132034Z 28026KT 15/M01 A3007 RMK A01 T01531010  RH  033%=      5-min Rain = 0
KGU1 132035Z 29027G33KT 15/M01 A3007 RMK A01 T01521010  RH  033%=      5-min Rain = 0
KGU1 132036Z 28025G30KT 15/M01 A3008 RMK A01 T01521008  RH  034%=      5-min Rain = 0
KGU1 132037Z 28026G31KT 15/M01 A3007 RMK A01 T01521009  RH  034%=      5-min Rain = 0
KGU1 132038Z 28018KT 15/M01 A3007 RMK A01 T01521009  RH  034%=      5-min Rain = 0
KGU1 132039Z 28021G29KT 15/M01 A3008 RMK A01 T01521008  RH  034%=      5-min Rain = 0
KGU1 132040Z 29022G28KT 15/M01 A3007 RMK A01 T01521008  RH  034%=      5-min Rain = 0
KGU1 132041Z 29017G23KT 15/M01 A3008 RMK A01 T01521010  RH  033%=      5-min Rain = 0
KGU1 132042Z 29021G28KT 15/M01 A3008 RMK A01 T01531008  RH  034%=      5-min Rain = 0
KGU1 132043Z 29023G31KT 15/M01 A3008 RMK A01 T01531007  RH  034%=      5-min Rain = 0
KGU1 132044Z 29023G30KT 15/M01 A3008 RMK A01 T01521009  RH  034%=      5-min Rain = 0
KGU1 132045Z 29023G29KT 15/M01 A3008 RMK A01 T01511008  RH  034%=      5-min Rain = 0
KGU1 132046Z 28022G28KT 15/M01 A3008 RMK A01 T01511009  RH  034%=      5-min Rain = 0
KGU1 132047Z 29021KT 15/M01 A3008 RMK A01 T01511008  RH  034%=      5-min Rain = 0
KGU1 132048Z 29021KT 15/M01 A3008 RMK A01 T01511007  RH  034%=      5-min Rain = 0
KGU1 132049Z 29026KT 15/M01 A3008 RMK A01 T01501008  RH  034%=      5-min Rain = 0
KGU1 132050Z 29021G26KT 15/M01 A3008 RMK A01 T01501010  RH  034%=      5-min Rain = 0
KGU1 132051Z 29021G27KT 15/M01 A3008 RMK A01 T01501008  RH  034%=      5-min Rain = 0
KGU1 132052Z 28021KT 15/M01 A3008 RMK A01 T01511007  RH  034%=      5-min Rain = 0
KGU1 132053Z 28021G26KT 15/M01 A3007 RMK A01 T01521008  RH  034%=      5-min Rain = 0
KGU1 132054Z 28023G29KT 15/M01 A3007 RMK A01 T01521009  RH  033%=      5-min Rain = 0
KGU1 132055Z 30020KT 15/M01 A3008 RMK A01 T01531008  RH  034%=      5-min Rain = 0
KGU1 132056Z 29024G32KT 15/M01 A3007 RMK A01 T01541007  RH  034%=      5-min Rain = 0
KGU1 132057Z 29021G28KT 15/M01 A3008 RMK A01 T01541007  RH  033%=      5-min Rain = 0
KGU1 132058Z 29018KT 15/M01 A3008 RMK A01 T01541007  RH  034%=      5-min Rain = 0
KGU1 132059Z 28024G31KT 16/M01 A3007 RMK A01 T01551006  RH  033%=      5-min Rain = 0
KGU1 132100Z 29019G25KT 16/M01 A3007 RMK A01 T01561005  RH  034%=      5-min Rain = 0
KGU1 132101Z 29016G22KT 16/M00 A3007 RMK A01 T01571003  RH  034%=      5-min Rain = 0
KGU1 132102Z 30020G26KT 16/M00 A3007 RMK A01 T01581004  RH  033%=      5-min Rain = 0
KGU1 132103Z 28018G23KT 16/M00 A3007 RMK A01 T01591003  RH  033%=      5-min Rain = 0
KGU1 132104Z 28018KT 16/M01 A3007 RMK A01 T01581005  RH  033%=      5-min Rain = 0
KGU1 132105Z 29020G27KT 16/M01 A3007 RMK A01 T01571005  RH  033%=      5-min Rain = 0
KGU1 132106Z 29025KT 16/M00 A3008 RMK A01 T01571004  RH  034%=      5-min Rain = 0
KGU1 132107Z 29023KT 16/M01 A3007 RMK A01 T01561006  RH  033%=      5-min Rain = 0
KGU1 132108Z 29021G26KT 16/M00 A3007 RMK A01 T01551004  RH  034%=      5-min Rain = 0
KGU1 132109Z 29021G27KT 16/M00 A3007 RMK A01 T01561004  RH  034%=      5-min Rain = 0
KGU1 132110Z 28019G27KT 16/M01 A3007 RMK A01 T01561005  RH  034%=      5-min Rain = 0
KGU1 132111Z 28013KT 16/M01 A3007 RMK A01 T01561007  RH  033%=      5-min Rain = 0
KGU1 132112Z 29014G19KT 16/M00 A3007 RMK A01 T01581004  RH  034%=      5-min Rain = 0
KGU1 132113Z 28018G25KT 16/M00 A3007 RMK A01 T01591002  RH  034%=      5-min Rain = 0
KGU1 132114Z 27022G28KT 16/M00 A3007 RMK A01 T01601003  RH  033%=      5-min Rain = 0
KGU1 132115Z 28024G31KT 16/M01 A3007 RMK A01 T01581006  RH  033%=      5-min Rain = 0
KGU1 132116Z 28020G25KT 16/M01 A3007 RMK A01 T01581005  RH  033%=      5-min Rain = 0
KGU1 132117Z 28019KT 16/M01 A3007 RMK A01 T01581005  RH  033%=      5-min Rain = 0
KGU1 132118Z 27019KT 16/M00 A3007 RMK A01 T01591004  RH  033%=      5-min Rain = 0
KGU1 132119Z 27017G23KT 16/M00 A3007 RMK A01 T01591004  RH  033%=      5-min Rain = 0
KGU1 132120Z 29020KT 16/M00 A3007 RMK A01 T01591004  RH  033%=      5-min Rain = 0
KGU1 132121Z 29019G25KT 16/M01 A3007 RMK A01 T01591005  RH  033%=      5-min Rain = 0
KGU1 132122Z 29021KT 16/M00 A3007 RMK A01 T01581004  RH  033%=      5-min Rain = 0
KGU1 132123Z 29016G22KT 16/M00 A3007 RMK A01 T01581003  RH  034%=      5-min Rain = 0
KGU1 132124Z 28018KT 16/M00 A3007 RMK A01 T01591003  RH  034%=      5-min Rain = 0
KGU1 132125Z 27021KT 16/M01 A3006 RMK A01 T01601005  RH  033%=      5-min Rain = 0
KGU1 132126Z 27020G26KT 16/M01 A3006 RMK A01 T01601007  RH  032%=      5-min Rain = 0
KGU1 132127Z 28016G21KT 16/M01 A3007 RMK A01 T01591006  RH  033%=      5-min Rain = 0
KGU1 132128Z 29017KT 16/M01 A3006 RMK A01 T01601006  RH  033%=      5-min Rain = 0
KGU1 132129Z 29016KT 16/M00 A3006 RMK A01 T01601004  RH  033%=      5-min Rain = 0
KGU1 132130Z 28016G21KT 16/M01 A3006 RMK A01 T01611005  RH  033%=      5-min Rain = 0
KGU1 132131Z 29018G23KT 16/M01 A3006 RMK A01 T01621006  RH  032%=      5-min Rain = 0
KGU1 132132Z 29016G23KT 16/M01 A3006 RMK A01 T01611005  RH  033%=      5-min Rain = 0
KGU1 132133Z 30015KT 16/M01 A3007 RMK A01 T01611006  RH  032%=      5-min Rain = 0
KGU1 132134Z 29014KT 16/M00 A3007 RMK A01 T01611004  RH  033%=      5-min Rain = 0
KGU1 132135Z 28016KT 16/M00 A3006 RMK A01 T01631004  RH  032%=      5-min Rain = 0
KGU1 132136Z 28017G24KT 16/M01 A3007 RMK A01 T01621006  RH  032%=      5-min Rain = 0
KGU1 132137Z 29018G23KT 16/M01 A3007 RMK A01 T01621005  RH  032%=      5-min Rain = 0
KGU1 132138Z 29019KT 16/M01 A3007 RMK A01 T01591006  RH  033%=      5-min Rain = 0
KGU1 132139Z 29018KT 16/M01 A3007 RMK A01 T01581007  RH  033%=      5-min Rain = 0
KGU1 132140Z 28017KT 16/M01 A3007 RMK A01 T01571006  RH  033%=      5-min Rain = 0
KGU1 132141Z 28021G29KT 16/M01 A3007 RMK A01 T01561007  RH  033%=      5-min Rain = 0
KGU1 132142Z 28018G23KT 16/M01 A3007 RMK A01 T01551007  RH  033%=      5-min Rain = 0
KGU1 132143Z 29017KT 16/M01 A3007 RMK A01 T01551005  RH  034%=      5-min Rain = 0
KGU1 132144Z 29019G24KT 15/M01 A3007 RMK A01 T01541006  RH  034%=      5-min Rain = 0
KGU1 132145Z 30016KT 15/M01 A3006 RMK A01 T01541005  RH  034%=      5-min Rain = 0
KGU1 132146Z 27021G28KT 16/M00 A3007 RMK A01 T01551004  RH  034%=      5-min Rain = 0
KGU1 132147Z 28022G28KT 16/M01 A3007 RMK A01 T01551007  RH  033%=      5-min Rain = 0
KGU1 132148Z 28017KT 16/M01 A3007 RMK A01 T01551007  RH  033%=      5-min Rain = 0
KGU1 132149Z 28015KT 16/M01 A3006 RMK A01 T01551007  RH  033%=      5-min Rain = 0
KGU1 132150Z 28016G21KT 16/M01 A3007 RMK A01 T01561005  RH  034%=      5-min Rain = 0
KGU1 132151Z 28015G22KT 16/M01 A3006 RMK A01 T01571006  RH  033%=      5-min Rain = 0
KGU1 132152Z 28015G21KT 16/M01 A3007 RMK A01 T01571005  RH  033%=      5-min Rain = 0
KGU1 132153Z 29017G25KT 16/M01 A3007 RMK A01 T01561005  RH  034%=      5-min Rain = 0
KGU1 132154Z 28017G23KT 16/M01 A3007 RMK A01 T01551006  RH  034%=      5-min Rain = 0
KGU1 132155Z 28019G25KT 15/M01 A3007 RMK A01 T01541006  RH  034%=      5-min Rain = 0
KGU1 132156Z 27022KT 15/M01 A3007 RMK A01 T01541007  RH  034%=      5-min Rain = 0
KGU1 132157Z 28019KT 15/M01 A3007 RMK A01 T01531008  RH  034%=      5-min Rain = 0
KGU1 132158Z 28020KT 15/M01 A3007 RMK A01 T01531006  RH  034%=      5-min Rain = 0
KGU1 132159Z 29022KT 15/M01 A3007 RMK A01 T01521007  RH  034%=      5-min Rain = 0
KGU1 132200Z 29020G26KT 15/M01 A3007 RMK A01 T01521007  RH  034%=      5-min Rain = 0
KGU1 132201Z 28021G30KT 15/M01 A3007 RMK A01 T01511007  RH  034%=      5-min Rain = 0
KGU1 132202Z 28021KT 15/M01 A3007 RMK A01 T01511008  RH  034%=      5-min Rain = 0
KGU1 132203Z 28022G29KT 15/M01 A3007 RMK A01 T01511007  RH  034%=      5-min Rain = 0
KGU1 132204Z 28019G28KT 15/M01 A3007 RMK A01 T01511007  RH  034%=      5-min Rain = 0
KGU1 132205Z 29018G25KT 15/M01 A3007 RMK A01 T01511006  RH  035%=      5-min Rain = 0
KGU1 132206Z 28016KT 15/M01 A3007 RMK A01 T01501006  RH  035%=      5-min Rain = 0
KGU1 132207Z 28018G23KT 15/M01 A3007 RMK A01 T01511006  RH  034%=      5-min Rain = 0
KGU1 132208Z 29016KT 15/M01 A3007 RMK A01 T01511007  RH  034%=      5-min Rain = 0
KGU1 132209Z 29018G23KT 15/M01 A3007 RMK A01 T01501007  RH  034%=      5-min Rain = 0
KGU1 132210Z 29018G24KT 15/M01 A3007 RMK A01 T01501007  RH  034%=      5-min Rain = 0
KGU1 132211Z 29014KT 15/M01 A3007 RMK A01 T01501006  RH  035%=      5-min Rain = 0
KGU1 132212Z 28017KT 15/M01 A3007 RMK A01 T01501005  RH  035%=      5-min Rain = 0
KGU1 132213Z 28018G23KT 15/M01 A3006 RMK A01 T01501008  RH  034%=      5-min Rain = 0
KGU1 132214Z 29018G23KT 15/M01 A3007 RMK A01 T01501008  RH  034%=      5-min Rain = 0
KGU1 132215Z 29022G34KT 15/M01 A3007 RMK A01 T01511008  RH  034%=      5-min Rain = 0
KGU1 132216Z 30027G34KT 15/M01 A3007 RMK A01 T01511009  RH  034%=      5-min Rain = 0
KGU1 132217Z 29024G29KT 15/M01 A3007 RMK A01 T01511009  RH  034%=      5-min Rain = 0
KGU1 132218Z 29020KT 15/M01 A3007 RMK A01 T01501008  RH  034%=      5-min Rain = 0
KGU1 132219Z 30019KT 15/M01 A3007 RMK A01 T01501007  RH  034%=      5-min Rain = 0
KGU1 132220Z 28015KT 15/M01 A3007 RMK A01 T01501007  RH  034%=      5-min Rain = 0
KGU1 132221Z 28018G27KT 15/M01 A3007 RMK A01 T01501007  RH  034%=      5-min Rain = 0
KGU1 132222Z 29017G28KT 15/M01 A3007 RMK A01 T01511008  RH  034%=      5-min Rain = 0
KGU1 132223Z 28017G24KT 15/M01 A3007 RMK A01 T01511008  RH  034%=      5-min Rain = 0
KGU1 132224Z 28015G23KT 15/M01 A3007 RMK A01 T01511008  RH  034%=      5-min Rain = 0
KGU1 132225Z 28020KT 15/M01 A3007 RMK A01 T01511006  RH  034%=      5-min Rain = 0
KGU1 132226Z 29019G26KT 15/M01 A3007 RMK A01 T01511006  RH  034%=      5-min Rain = 0
KGU1 132227Z 29018KT 15/M01 A3007 RMK A01 T01511005  RH  035%=      5-min Rain = 0
KGU1 132228Z 27018G26KT 15/M01 A3006 RMK A01 T01511006  RH  035%=      5-min Rain = 0
KGU1 132229Z 29015KT 15/M01 A3006 RMK A01 T01521007  RH  034%=      5-min Rain = 0
KGU1 132230Z 28017G23KT 15/M01 A3006 RMK A01 T01521005  RH  035%=      5-min Rain = 0
KGU1 132231Z 29021G30KT 15/M01 A3006 RMK A01 T01521005  RH  034%=      5-min Rain = 0
KGU1 132232Z 29017KT 15/M01 A3006 RMK A01 T01521005  RH  035%=      5-min Rain = 0
KGU1 132233Z 28017G24KT 15/M00 A3006 RMK A01 T01531004  RH  034%=      5-min Rain = 0
KGU1 132234Z 29023G29KT 15/M01 A3006 RMK A01 T01541005  RH  034%=      5-min Rain = 0
KGU1 132235Z 28017G22KT 15/M01 A3006 RMK A01 T01541005  RH  034%=      5-min Rain = 0
KGU1 132236Z 29020G27KT 15/M01 A3006 RMK A01 T01541005  RH  034%=      5-min Rain = 0
KGU1 132237Z 28018KT 15/M01 A3006 RMK A01 T01541005  RH  034%=      5-min Rain = 0
KGU1 132238Z 29020KT 15/M00 A3006 RMK A01 T01531004  RH  034%=      5-min Rain = 0
KGU1 132239Z 28016KT 15/M00 A3006 RMK A01 T01541004  RH  034%=      5-min Rain = 0
KGU1 132240Z 29013KT 15/M01 A3006 RMK A01 T01541005  RH  034%=      5-min Rain = 0
KGU1 132241Z 28015KT 16/M00 A3006 RMK A01 T01551003  RH  034%=      5-min Rain = 0
KGU1 132242Z 31018G23KT 16/M00 A3006 RMK A01 T01561002  RH  034%=      5-min Rain = 0
KGU1 132243Z 28014G19KT 16/M00 A3006 RMK A01 T01551002  RH  035%=      5-min Rain = 0
KGU1 132244Z 29017G23KT 16/M00 A3006 RMK A01 T01561002  RH  034%=      5-min Rain = 0
KGU1 132245Z 29016KT 16/M00 A3006 RMK A01 T01561001  RH  035%=      5-min Rain = 0
KGU1 132246Z 29015G20KT 16/M00 A3006 RMK A01 T01561001  RH  035%=      5-min Rain = 0
KGU1 132247Z 29019G24KT 16/M00 A3006 RMK A01 T01561001  RH  034%=      5-min Rain = 0
KGU1 132248Z 29022G27KT 16/M00 A3006 RMK A01 T01561003  RH  034%=      5-min Rain = 0
KGU1 132249Z 28016KT 16/M00 A3005 RMK A01 T01561002  RH  034%=      5-min Rain = 0
KGU1 132250Z 28017G23KT 16/M00 A3005 RMK A01 T01561002  RH  034%=      5-min Rain = 0
KGU1 132251Z 29015KT 16/M00 A3005 RMK A01 T01551003  RH  034%=      5-min Rain = 0
KGU1 132252Z 29018KT 16/M00 A3005 RMK A01 T01551001  RH  035%=      5-min Rain = 0
KGU1 132253Z 29018KT 15/M00 A3005 RMK A01 T01541002  RH  035%=      5-min Rain = 0
KGU1 132254Z 28018KT 15/M00 A3005 RMK A01 T01541002  RH  035%=      5-min Rain = 0
KGU1 132255Z 28014KT 16/M00 A3005 RMK A01 T01551001  RH  035%=      5-min Rain = 0
KGU1 132256Z 29015KT 16/M00 A3006 RMK A01 T01551001  RH  035%=      5-min Rain = 0
KGU1 132257Z 29017G22KT 16/00 A3006 RMK A01 T015500-0  RH  035%=      5-min Rain = 0
KGU1 132258Z 28023KT 15/M00 A3005 RMK A01 T01541001  RH  035%=      5-min Rain = 0
KGU1 132259Z 29018G25KT 15/M00 A3006 RMK A01 T01541001  RH  035%=      5-min Rain = 0
KGU1 132300Z 29015G20KT 15/00 A3006 RMK A01 T015300-0  RH  035%=      5-min Rain = 0
KGU1 132301Z 28018G24KT 15/M00 A3006 RMK A01 T01521001  RH  035%=      5-min Rain = 0
KGU1 132302Z 28015G20KT 15/M00 A3006 RMK A01 T01521001  RH  036%=      5-min Rain = 0
KGU1 132303Z 28016KT 15/00 A3006 RMK A01 T015200-0  RH  036%=      5-min Rain = 0
KGU1 132304Z 29015G21KT 15/00 A3006 RMK A01 T01530001  RH  036%=      5-min Rain = 0
KGU1 132305Z 28016G21KT 15/00 A3006 RMK A01 T01540000  RH  035%=      5-min Rain = 0
KGU1 132306Z 28016KT 15/00 A3006 RMK A01 T01540000  RH  035%=      5-min Rain = 0
KGU1 132307Z 27014G19KT 15/00 A3006 RMK A01 T01540001  RH  036%=      5-min Rain = 0
KGU1 132308Z 27016KT 16/00 A3006 RMK A01 T01550001  RH  035%=      5-min Rain = 0
KGU1 132309Z 28012KT 16/00 A3006 RMK A01 T01550001  RH  035%=      5-min Rain = 0
KGU1 132310Z 28012KT 15/00 A3006 RMK A01 T01540001  RH  035%=      5-min Rain = 0
KGU1 132311Z 27016KT 15/00 A3006 RMK A01 T01540001  RH  036%=      5-min Rain = 0
KGU1 132312Z 28016G21KT 15/00 A3006 RMK A01 T01540001  RH  036%=      5-min Rain = 0
KGU1 132313Z 28014KT 15/00 A3006 RMK A01 T01530001  RH  036%=      5-min Rain = 0
KGU1 132314Z 27012G19KT 15/00 A3006 RMK A01 T01530001  RH  036%=      5-min Rain = 0
KGU1 132315Z 28015G22KT 15/00 A3006 RMK A01 T01520001  RH  036%=      5-min Rain = 0
KGU1 132316Z 28016G22KT 15/00 A3007 RMK A01 T01520001  RH  036%=      5-min Rain = 0
KGU1 132317Z 28019KT 15/00 A3006 RMK A01 T01520001  RH  036%=      5-min Rain = 0
KGU1 132318Z 28018G24KT 15/00 A3007 RMK A01 T01510001  RH  036%=      5-min Rain = 0
KGU1 132319Z 29014G19KT 15/00 A3007 RMK A01 T01510001  RH  036%=      5-min Rain = 0
KGU1 132320Z 27015G22KT 15/00 A3007 RMK A01 T01510001  RH  036%=      5-min Rain = 0
KGU1 132321Z 27016KT 15/00 A3007 RMK A01 T015100-0  RH  036%=      5-min Rain = 0
KGU1 132322Z 28012KT 15/00 A3007 RMK A01 T01510001  RH  036%=      5-min Rain = 0
KGU1 132323Z 27016G22KT 15/00 A3007 RMK A01 T01500001  RH  036%=      5-min Rain = 0
KGU1 132324Z 27015KT 15/00 A3006 RMK A01 T01500000  RH  036%=      5-min Rain = 0
KGU1 132325Z 28014KT 15/00 A3007 RMK A01 T01490000  RH  036%=      5-min Rain = 0
KGU1 132326Z 28016G21KT 15/00 A3006 RMK A01 T01490000  RH  037%=      5-min Rain = 0
KGU1 132327Z 28015KT 15/00 A3007 RMK A01 T01490000  RH  037%=      5-min Rain = 0
KGU1 132328Z 27017G23KT 15/00 A3006 RMK A01 T01490000  RH  037%=      5-min Rain = 0
KGU1 132329Z 27018G23KT 15/M00 A3006 RMK A01 T01481001  RH  036%=      5-min Rain = 0
KGU1 132330Z 27015KT 15/00 A3006 RMK A01 T014800-0  RH  037%=      5-min Rain = 0
KGU1 132331Z 28018G26KT 15/00 A3006 RMK A01 T014700-0  RH  037%=      5-min Rain = 0
KGU1 132332Z 28014G23KT 15/00 A3006 RMK A01 T014700-0  RH  037%=      5-min Rain = 0
KGU1 132333Z 28017KT 15/00 A3006 RMK A01 T01460000  RH  037%=      5-min Rain = 0
KGU1 132334Z 28015KT 15/00 A3006 RMK A01 T01460000  RH  037%=      5-min Rain = 0
KGU1 132335Z 27017G25KT 15/00 A3006 RMK A01 T014500-0  RH  037%=      5-min Rain = 0
KGU1 132336Z 28019KT 15/00 A3006 RMK A01 T01450001  RH  038%=      5-min Rain = 0
KGU1 132337Z 27016G21KT 15/00 A3006 RMK A01 T01450001  RH  038%=      5-min Rain = 0
KGU1 132338Z 28014KT 14/00 A3006 RMK A01 T01440001  RH  038%=      5-min Rain = 0
KGU1 132339Z 27015G20KT 14/00 A3006 RMK A01 T01440000  RH  038%=      5-min Rain = 0
KGU1 132340Z 29015G20KT 14/00 A3006 RMK A01 T01440001  RH  038%=      5-min Rain = 0
KGU1 132341Z 29018G23KT 14/00 A3007 RMK A01 T01440001  RH  038%=      5-min Rain = 0
KGU1 132342Z 28017KT 15/00 A3006 RMK A01 T01450000  RH  038%=      5-min Rain = 0
KGU1 132343Z 28014G19KT 15/00 A3006 RMK A01 T01450000  RH  038%=      5-min Rain = 0
KGU1 132344Z 28014KT 15/00 A3006 RMK A01 T01450000  RH  038%=      5-min Rain = 0
KGU1 132345Z 28015KT 14/00 A3006 RMK A01 T01440001  RH  038%=      5-min Rain = 0
KGU1 132346Z 28019G24KT 14/00 A3006 RMK A01 T01440000  RH  038%=      5-min Rain = 0
KGU1 132347Z 25019G26KT 15/M00 A3006 RMK A01 T01451001  RH  037%=      5-min Rain = 0
KGU1 132348Z 26015G24KT 15/M00 A3006 RMK A01 T01461002  RH  037%=      5-min Rain = 0
KGU1 132349Z 27017KT 15/M00 A3006 RMK A01 T01461001  RH  037%=      5-min Rain = 0
KGU1 132350Z 28017KT 15/M00 A3006 RMK A01 T01451001  RH  037%=      5-min Rain = 0
KGU1 132351Z 28017G22KT 15/M00 A3006 RMK A01 T01451001  RH  037%=      5-min Rain = 0
KGU1 132352Z 29018G25KT 15/M00 A3007 RMK A01 T01451001  RH  037%=      5-min Rain = 0
KGU1 132353Z 28018G24KT 14/M00 A3007 RMK A01 T01441002  RH  037%=      5-min Rain = 0
KGU1 132354Z 27015G20KT 15/M00 A3007 RMK A01 T01451002  RH  037%=      5-min Rain = 0
KGU1 132355Z 28020KT 14/M00 A3007 RMK A01 T01441003  RH  037%=      5-min Rain = 0
KGU1 132356Z 27018G29KT 15/M00 A3007 RMK A01 T01451003  RH  036%=      5-min Rain = 0
KGU1 132357Z 28018G26KT 15/M00 A3007 RMK A01 T01461004  RH  036%=      5-min Rain = 0
KGU1 132358Z 28017G23KT 15/M00 A3006 RMK A01 T01451004  RH  036%=      5-min Rain = 0
KGU1 132359Z 25017G23KT 15/M01 A3006 RMK A01 T01451005  RH  036%=      5-min Rain = 0
KGU1 140000Z 25018KT 15/M01 A3006 RMK A01 T01461005  RH  036%=      5-min Rain = 0
KGU1 140001Z 26016G23KT 15/M00 A3006 RMK A01 T01461004  RH  036%=      5-min Rain = 0
KGU1 140002Z 26016G24KT 15/M01 A3006 RMK A01 T01461006  RH  036%=      5-min Rain = 0
KGU1 140003Z 28016G23KT 15/M01 A3006 RMK A01 T01461006  RH  036%=      5-min Rain = 0
KGU1 140004Z 27021G26KT 15/M01 A3006 RMK A01 T01451005  RH  036%=      5-min Rain = 0
KGU1 140005Z 27016G21KT 15/M01 A3006 RMK A01 T01461005  RH  036%=      5-min Rain = 0
KGU1 140006Z 27017KT 15/M01 A3006 RMK A01 T01451006  RH  036%=      5-min Rain = 0
KGU1 140007Z 28015KT 15/M01 A3006 RMK A01 T01451007  RH  036%=      5-min Rain = 0
KGU1 140008Z 28017G25KT 14/M01 A3006 RMK A01 T01441007  RH  036%=      5-min Rain = 0
KGU1 140009Z 27016G23KT 15/M01 A3006 RMK A01 T01451007  RH  036%=      5-min Rain = 0
KGU1 140010Z 27012G18KT 14/M01 A3006 RMK A01 T01441006  RH  036%=      5-min Rain = 0
KGU1 140011Z 26018KT 14/M01 A3006 RMK A01 T01441007  RH  036%=      5-min Rain = 0
KGU1 140012Z 26020KT 15/M01 A3005 RMK A01 T01451008  RH  035%=      5-min Rain = 0
KGU1 140013Z 28014KT 15/M01 A3006 RMK A01 T01461007  RH  035%=      5-min Rain = 0
KGU1 140014Z 28018G24KT 14/M01 A3006 RMK A01 T01441006  RH  036%=      5-min Rain = 0
KGU1 140015Z 27015G21KT 14/M01 A3006 RMK A01 T01431005  RH  037%=      5-min Rain = 0
KGU1 140016Z 27015G24KT 14/M01 A3006 RMK A01 T01421005  RH  037%=      5-min Rain = 0
KGU1 140017Z 28014KT 14/M01 A3006 RMK A01 T01411005  RH  037%=      5-min Rain = 0
KGU1 140018Z 26015KT 14/M01 A3006 RMK A01 T01421007  RH  036%=      5-min Rain = 0
KGU1 140019Z 27014KT 14/M01 A3006 RMK A01 T01431008  RH  036%=      5-min Rain = 0
KGU1 140020Z 27019G27KT 14/M01 A3006 RMK A01 T01441010  RH  035%=      5-min Rain = 0
KGU1 140021Z 28016KT 14/M01 A3006 RMK A01 T01441009  RH  035%=      5-min Rain = 0
KGU1 140022Z 26017G23KT 14/M01 A3006 RMK A01 T01441010  RH  035%=      5-min Rain = 0
KGU1 140023Z 27021G26KT 15/M01 A3006 RMK A01 T01451011  RH  035%=      5-min Rain = 0
KGU1 140024Z 26020G29KT 15/M01 A3006 RMK A01 T01451010  RH  035%=      5-min Rain = 0
KGU1 140025Z 26019G26KT 15/M01 A3006 RMK A01 T01461012  RH  034%=      5-min Rain = 0
KGU1 140026Z 26016G21KT 15/M01 A3006 RMK A01 T01461012  RH  034%=      5-min Rain = 0
KGU1 140027Z 26017G23KT 15/M01 A3006 RMK A01 T01451011  RH  035%=      5-min Rain = 0
KGU1 140028Z 26018G23KT 14/M01 A3006 RMK A01 T01441011  RH  035%=      5-min Rain = 0
KGU1 140029Z 26015G22KT 15/M01 A3006 RMK A01 T01451013  RH  034%=      5-min Rain = 0
KGU1 140030Z 27017KT 15/M01 A3006 RMK A01 T01451012  RH  034%=      5-min Rain = 0
KGU1 140031Z 26018G24KT 15/M01 A3006 RMK A01 T01451012  RH  034%=      5-min Rain = 0
KGU1 140032Z 27019KT 15/M01 A3006 RMK A01 T01451013  RH  034%=      5-min Rain = 0
KGU1 140033Z 27015G20KT 15/M01 A3006 RMK A01 T01451013  RH  034%=      5-min Rain = 0
KGU1 140034Z 28012KT 14/M01 A3006 RMK A01 T01441012  RH  034%=      5-min Rain = 0
KGU1 140035Z 26016G22KT 14/M01 A3006 RMK A01 T01431012  RH  035%=      5-min Rain = 0
KGU1 140036Z 27016G22KT 14/M01 A3006 RMK A01 T01431013  RH  034%=      5-min Rain = 0
KGU1 140037Z 26017G22KT 14/M01 A3006 RMK A01 T01431012  RH  035%=      5-min Rain = 0
KGU1 140038Z 26012G18KT 14/M01 A3007 RMK A01 T01421010  RH  035%=      5-min Rain = 0
KGU1 140039Z 27014G20KT 14/M01 A3007 RMK A01 T01421011  RH  035%=      5-min Rain = 0
KGU1 140040Z 28012KT 14/M01 A3007 RMK A01 T01411011  RH  035%=      5-min Rain = 0
KGU1 140041Z 25016KT 14/M01 A3006 RMK A01 T01411011  RH  035%=      5-min Rain = 0
KGU1 140042Z 26017G22KT 14/M01 A3006 RMK A01 T01421012  RH  035%=      5-min Rain = 0
KGU1 140043Z 26015G20KT 14/M01 A3006 RMK A01 T01431010  RH  035%=      5-min Rain = 0
KGU1 140044Z 25014G21KT 14/M01 A3006 RMK A01 T01431014  RH  034%=      5-min Rain = 0
KGU1 140045Z 24014G19KT 14/M01 A3006 RMK A01 T01441014  RH  034%=      5-min Rain = 0
KGU1 140046Z 26016KT 15/M01 A3006 RMK A01 T01451013  RH  034%=      5-min Rain = 0
KGU1 140047Z 27014G23KT 15/M01 A3007 RMK A01 T01451012  RH  034%=      5-min Rain = 0
KGU1 140048Z 25018G23KT 14/M01 A3007 RMK A01 T01441011  RH  035%=      5-min Rain = 0
KGU1 140049Z 26017G22KT 14/M01 A3007 RMK A01 T01441011  RH  035%=      5-min Rain = 0
KGU1 140050Z 25017KT 15/M01 A3007 RMK A01 T01451009  RH  035%=      5-min Rain = 0
KGU1 140051Z 25015KT 14/M01 A3007 RMK A01 T01441007  RH  036%=      5-min Rain = 0
KGU1 140052Z 25013KT 14/M01 A3007 RMK A01 T01431005  RH  037%=      5-min Rain = 0
KGU1 140053Z 25013G18KT 14/M01 A3007 RMK A01 T01421005  RH  037%=      5-min Rain = 0
KGU1 140054Z 25018G23KT 14/M01 A3006 RMK A01 T01421005  RH  037%=      5-min Rain = 0
KGU1 140055Z 25010G15KT 14/M01 A3007 RMK A01 T01421006  RH  036%=      5-min Rain = 0
KGU1 140056Z 26010G15KT 14/M01 A3007 RMK A01 T01421007  RH  036%=      5-min Rain = 0
KGU1 140057Z 26014KT 14/M00 A3006 RMK A01 T01411004  RH  037%=      5-min Rain = 0
KGU1 140058Z 26017KT 14/M00 A3006 RMK A01 T01401003  RH  038%=      5-min Rain = 0
KGU1 140059Z 25014KT 14/M00 A3006 RMK A01 T01401003  RH  038%=      5-min Rain = 0
KGU1 140100Z 25013KT 14/M00 A3006 RMK A01 T01411003  RH  038%=      5-min Rain = 0
KGU1 140101Z 26016G22KT 14/M01 A3006 RMK A01 T01401005  RH  037%=      5-min Rain = 0
KGU1 140102Z 25015G23KT 14/M01 A3006 RMK A01 T01411009  RH  036%=      5-min Rain = 0
KGU1 140103Z 25016G21KT 14/M01 A3006 RMK A01 T01421009  RH  036%=      5-min Rain = 0
KGU1 140104Z 26011KT 14/M01 A3006 RMK A01 T01421006  RH  036%=      5-min Rain = 0
KGU1 140105Z 26014KT 14/M01 A3006 RMK A01 T01411006  RH  037%=      5-min Rain = 0
KGU1 140106Z 25011KT 14/M01 A3006 RMK A01 T01411007  RH  036%=      5-min Rain = 0
KGU1 140107Z 23013KT 14/M01 A3006 RMK A01 T01401006  RH  037%=      5-min Rain = 0
KGU1 140108Z 26013KT 14/M01 A3006 RMK A01 T01401009  RH  036%=      5-min Rain = 0
KGU1 140109Z 26015G22KT 14/M01 A3006 RMK A01 T01411008  RH  036%=      5-min Rain = 0
KGU1 140110Z 25014KT 14/M01 A3006 RMK A01 T01411010  RH  036%=      5-min Rain = 0
KGU1 140111Z 26018G23KT 14/M01 A3006 RMK A01 T01411012  RH  035%=      5-min Rain = 0
KGU1 140112Z 25017KT 14/M01 A3006 RMK A01 T01421011  RH  035%=      5-min Rain = 0
KGU1 140113Z 25015KT 14/M01 A3006 RMK A01 T01421009  RH  036%=      5-min Rain = 0
KGU1 140114Z 25014G19KT 14/M01 A3006 RMK A01 T01421008  RH  036%=      5-min Rain = 0
KGU1 140115Z 25014KT 14/M01 A3006 RMK A01 T01411008  RH  036%=      5-min Rain = 0
KGU1 140116Z 25015G20KT 14/M01 A3006 RMK A01 T01411010  RH  036%=      5-min Rain = 0
KGU1 140117Z 26019G26KT 14/M01 A3006 RMK A01 T01411011  RH  035%=      5-min Rain = 0
KGU1 140118Z 25016G21KT 14/M01 A3006 RMK A01 T01421009  RH  036%=      5-min Rain = 0
KGU1 140119Z 24015G20KT 14/M01 A3006 RMK A01 T01421010  RH  035%=      5-min Rain = 0
KGU1 140120Z 26013G18KT 14/M01 A3006 RMK A01 T01421010  RH  035%=      5-min Rain = 0
KGU1 140121Z 26015G21KT 14/M01 A3006 RMK A01 T01421008  RH  036%=      5-min Rain = 0
KGU1 140122Z 26012G19KT 14/M01 A3006 RMK A01 T01411007  RH  037%=      5-min Rain = 0
KGU1 140123Z 25014G22KT 14/M01 A3006 RMK A01 T01411007  RH  036%=      5-min Rain = 0
KGU1 140124Z 26011KT 14/M01 A3006 RMK A01 T01411009  RH  036%=      5-min Rain = 0
KGU1 140125Z 25014G20KT 14/M01 A3006 RMK A01 T01411011  RH  036%=      5-min Rain = 0
KGU1 140126Z 27016G21KT 14/M02 A3007 RMK A01 T01411015  RH  034%=      5-min Rain = 0
KGU1 140127Z 26018G23KT 14/M02 A3007 RMK A01 T01421016  RH  034%=      5-min Rain = 0
KGU1 140128Z 25012KT 14/M01 A3007 RMK A01 T01421012  RH  035%=      5-min Rain = 0
KGU1 140129Z 26017G23KT 14/M01 A3006 RMK A01 T01411013  RH  035%=      5-min Rain = 0
KGU1 140130Z 26014G20KT 14/M01 A3006 RMK A01 T01421014  RH  034%=      5-min Rain = 0
KGU1 140131Z 26013G18KT 14/M01 A3007 RMK A01 T01411012  RH  035%=      5-min Rain = 0
KGU1 140132Z 26011KT 14/M01 A3007 RMK A01 T01401010  RH  036%=      5-min Rain = 0
KGU1 140133Z 26013KT 14/M01 A3006 RMK A01 T01391009  RH  036%=      5-min Rain = 0
KGU1 140134Z 27011KT 14/M01 A3007 RMK A01 T01391007  RH  037%=      5-min Rain = 0
KGU1 140135Z 27014KT 14/M01 A3006 RMK A01 T01371007  RH  037%=      5-min Rain = 0
KGU1 140136Z 27013KT 14/M01 A3006 RMK A01 T01371010  RH  036%=      5-min Rain = 0
KGU1 140137Z 25014G20KT 14/M01 A3006 RMK A01 T01371007  RH  037%=      5-min Rain = 0
KGU1 140138Z 26015G23KT 14/M01 A3006 RMK A01 T01381008  RH  037%=      5-min Rain = 0
KGU1 140139Z 27015G21KT 14/M01 A3006 RMK A01 T01381006  RH  038%=      5-min Rain = 0
KGU1 140140Z 27013G18KT 14/M00 A3006 RMK A01 T01371004  RH  038%=      5-min Rain = 0
KGU1 140141Z 27013KT 14/M00 A3006 RMK A01 T01361004  RH  039%=      5-min Rain = 0
KGU1 140142Z 25014G22KT 14/M00 A3006 RMK A01 T01351002  RH  039%=      5-min Rain = 0
KGU1 140143Z 25016G25KT 14/M01 A3006 RMK A01 T01361005  RH  038%=      5-min Rain = 0
KGU1 140144Z 25013G19KT 14/M00 A3006 RMK A01 T01371002  RH  039%=      5-min Rain = 0
KGU1 140145Z 27014KT 14/M00 A3007 RMK A01 T01371004  RH  038%=      5-min Rain = 0
KGU1 140146Z 28015KT 14/M00 A3007 RMK A01 T01361003  RH  039%=      5-min Rain = 0
KGU1 140147Z 28013KT 14/M00 A3007 RMK A01 T01351004  RH  039%=      5-min Rain = 0
KGU1 140148Z 26011G20KT 13/M00 A3007 RMK A01 T01341003  RH  039%=      5-min Rain = 0
KGU1 140149Z 27017KT 13/M00 A3007 RMK A01 T01341002  RH  039%=      5-min Rain = 0
KGU1 140150Z 27014KT 14/M00 A3007 RMK A01 T01351002  RH  040%=      5-min Rain = 0
KGU1 140151Z 27015G20KT 13/M00 A3007 RMK A01 T01341002  RH  040%=      5-min Rain = 0
KGU1 140152Z 27015KT 13/00 A3007 RMK A01 T01340000  RH  040%=      5-min Rain = 0
KGU1 140153Z 26016KT 13/00 A3007 RMK A01 T01330000  RH  041%=      5-min Rain = 0
KGU1 140154Z 27015KT 13/M00 A3007 RMK A01 T01341002  RH  040%=      5-min Rain = 0
KGU1 140155Z 26015G22KT 13/00 A3007 RMK A01 T013400-0  RH  040%=      5-min Rain = 0
KGU1 140156Z 26016G21KT 13/M00 A3007 RMK A01 T01341001  RH  040%=      5-min Rain = 0
KGU1 140157Z 26015KT 14/M00 A3007 RMK A01 T01351001  RH  040%=      5-min Rain = 0
KGU1 140158Z 26015KT 14/00 A3006 RMK A01 T01350000  RH  040%=      5-min Rain = 0
KGU1 140159Z 28017KT 14/00 A3007 RMK A01 T013500-0  RH  040%=      5-min Rain = 0
KGU1 140200Z 28012KT 13/00 A3007 RMK A01 T01340001  RH  041%=      5-min Rain = 0
KGU1 140201Z 27013KT 13/00 A3007 RMK A01 T01320001  RH  041%=      5-min Rain = 0
KGU1 140202Z 28013KT 13/00 A3007 RMK A01 T01320003  RH  042%=      5-min Rain = 0
KGU1 140203Z 28011KT 13/00 A3007 RMK A01 T01300003  RH  042%=      5-min Rain = 0
KGU1 140204Z 28014KT 13/00 A3007 RMK A01 T01300002  RH  042%=      5-min Rain = 0
KGU1 140205Z 29012KT 13/00 A3007 RMK A01 T01300002  RH  042%=      5-min Rain = 0
KGU1 140206Z 27017KT 13/00 A3007 RMK A01 T01310001  RH  041%=      5-min Rain = 0
KGU1 140207Z 26013G21KT 13/00 A3007 RMK A01 T01330001  RH  041%=      5-min Rain = 0
KGU1 140208Z 27016KT 13/00 A3007 RMK A01 T01320002  RH  041%=      5-min Rain = 0
KGU1 140209Z 27011KT 13/00 A3007 RMK A01 T01320002  RH  041%=      5-min Rain = 0
KGU1 140210Z 26012G18KT 13/00 A3007 RMK A01 T01310002  RH  042%=      5-min Rain = 0
KGU1 140211Z 26013KT 13/00 A3007 RMK A01 T01320001  RH  041%=      5-min Rain = 0
KGU1 140212Z 28013KT 13/00 A3007 RMK A01 T01320001  RH  041%=      5-min Rain = 0
KGU1 140213Z 26013KT 13/00 A3007 RMK A01 T01320002  RH  041%=      5-min Rain = 0
KGU1 140214Z 27013KT 13/00 A3008 RMK A01 T01320001  RH  041%=      5-min Rain = 0
KGU1 140215Z 27011KT 13/00 A3008 RMK A01 T01320002  RH  041%=      5-min Rain = 0
KGU1 140216Z 28011KT 13/00 A3008 RMK A01 T01310002  RH  042%=      5-min Rain = 0
KGU1 140217Z 27012KT 13/00 A3008 RMK A01 T01300002  RH  042%=      5-min Rain = 0
KGU1 140218Z 28012KT 13/00 A3008 RMK A01 T01300002  RH  042%=      5-min Rain = 0
KGU1 140219Z 27010KT 13/00 A3008 RMK A01 T01290002  RH  042%=      5-min Rain = 0
KGU1 140220Z 28009KT 13/00 A3008 RMK A01 T01280003  RH  043%=      5-min Rain = 0
KGU1 140221Z 28011KT 13/00 A3008 RMK A01 T01280003  RH  043%=      5-min Rain = 0
KGU1 140222Z 28012KT 13/00 A3008 RMK A01 T01270003  RH  043%=      5-min Rain = 0
KGU1 140223Z 27010KT 13/00 A3007 RMK A01 T01280002  RH  042%=      5-min Rain = 0
KGU1 140224Z 28013KT 13/00 A3008 RMK A01 T01290001  RH  042%=      5-min Rain = 0
KGU1 140225Z 28013KT 13/00 A3008 RMK A01 T01300001  RH  042%=      5-min Rain = 0
KGU1 140226Z 28012KT 13/00 A3008 RMK A01 T01300001  RH  042%=      5-min Rain = 0
KGU1 140227Z 27010G15KT 13/00 A3008 RMK A01 T01300000  RH  041%=      5-min Rain = 0
KGU1 140228Z 27011KT 13/00 A3008 RMK A01 T013000-0  RH  041%=      5-min Rain = 0
KGU1 140229Z 28010KT 13/00 A3008 RMK A01 T01310000  RH  041%=      5-min Rain = 0
KGU1 140230Z 27010KT 13/00 A3008 RMK A01 T01300001  RH  042%=      5-min Rain = 0
KGU1 140231Z 27010KT 13/00 A3008 RMK A01 T01290000  RH  042%=      5-min Rain = 0
KGU1 140232Z 27011KT 13/00 A3008 RMK A01 T01290000  RH  042%=      5-min Rain = 0
KGU1 140233Z 27014KT 13/M00 A3008 RMK A01 T01291001  RH  041%=      5-min Rain = 0
KGU1 140234Z 27016G22KT 13/M00 A3008 RMK A01 T01311001  RH  041%=      5-min Rain = 0
KGU1 140235Z 27010KT 13/M00 A3008 RMK A01 T01331001  RH  040%=      5-min Rain = 0
KGU1 140236Z 27012KT 13/00 A3008 RMK A01 T013400-0  RH  040%=      5-min Rain = 0
KGU1 140237Z 27011KT 13/00 A3008 RMK A01 T013400-0  RH  040%=      5-min Rain = 0
KGU1 140238Z 27010KT 13/00 A3009 RMK A01 T01340000  RH  040%=      5-min Rain = 0
KGU1 140239Z 26011KT 13/00 A3009 RMK A01 T01330002  RH  041%=      5-min Rain = 0
KGU1 140240Z 27010KT 13/00 A3009 RMK A01 T01310002  RH  042%=      5-min Rain = 0
KGU1 140241Z 27007KT 13/00 A3009 RMK A01 T01310003  RH  042%=      5-min Rain = 0
KGU1 140242Z 28008KT 13/00 A3009 RMK A01 T01300003  RH  042%=      5-min Rain = 0
KGU1 140243Z 28013KT 13/00 A3009 RMK A01 T01290003  RH  042%=      5-min Rain = 0
KGU1 140244Z 27009KT 13/00 A3009 RMK A01 T01310003  RH  042%=      5-min Rain = 0
KGU1 140245Z 26012G17KT 13/00 A3009 RMK A01 T01310003  RH  042%=      5-min Rain = 0
KGU1 140246Z 27011KT 13/00 A3009 RMK A01 T01310003  RH  042%=      5-min Rain = 0
KGU1 140247Z 27010KT 13/00 A3009 RMK A01 T01310003  RH  042%=      5-min Rain = 0
KGU1 140248Z 27009KT 13/00 A3009 RMK A01 T01310003  RH  042%=      5-min Rain = 0
KGU1 140249Z 27010KT 13/00 A3009 RMK A01 T01310003  RH  042%=      5-min Rain = 0
KGU1 140250Z 26009KT 13/00 A3009 RMK A01 T01300003  RH  042%=      5-min Rain = 0
KGU1 140251Z 28009KT 13/00 A3009 RMK A01 T01300002  RH  042%=      5-min Rain = 0
KGU1 140252Z 28011KT 13/00 A3009 RMK A01 T01300003  RH  042%=      5-min Rain = 0
KGU1 140253Z 28008KT 13/00 A3009 RMK A01 T01290004  RH  043%=      5-min Rain = 0
KGU1 140254Z 28010KT 13/00 A3009 RMK A01 T01290003  RH  043%=      5-min Rain = 0
KGU1 140255Z 29008KT 13/00 A3009 RMK A01 T01290003  RH  043%=      5-min Rain = 0
KGU1 140256Z 30006KT 13/00 A3009 RMK A01 T01280001  RH  042%=      5-min Rain = 0
KGU1 140257Z 28006KT 13/00 A3009 RMK A01 T01280002  RH  042%=      5-min Rain = 0
KGU1 140258Z 28007KT 13/00 A3009 RMK A01 T01280002  RH  043%=      5-min Rain = 0
KGU1 140259Z 28008KT 13/00 A3009 RMK A01 T01270003  RH  043%=      5-min Rain = 0
KGU1 140300Z 30008KT 13/00 A3009 RMK A01 T01270003  RH  043%=      5-min Rain = 0
KGU1 140301Z 29005KT 13/00 A3009 RMK A01 T01270002  RH  043%=      5-min Rain = 0
KGU1 140302Z 26006KT 13/00 A3009 RMK A01 T01280002  RH  042%=      5-min Rain = 0
KGU1 140303Z 27005KT 13/00 A3009 RMK A01 T01280001  RH  042%=      5-min Rain = 0
KGU1 140304Z 27004KT 13/00 A3009 RMK A01 T01280002  RH  042%=      5-min Rain = 0
KGU1 140305Z 24006KT 13/00 A3009 RMK A01 T01280001  RH  042%=      5-min Rain = 0
KGU1 140306Z 28009KT 13/00 A3009 RMK A01 T01290000  RH  042%=      5-min Rain = 0
KGU1 140307Z 28007KT 13/M00 A3009 RMK A01 T01311001  RH  041%=      5-min Rain = 0
KGU1 140308Z 27010KT 13/M00 A3009 RMK A01 T01321001  RH  041%=      5-min Rain = 0
KGU1 140309Z 28008KT 13/00 A3009 RMK A01 T013200-0  RH  041%=      5-min Rain = 0
KGU1 140310Z 25008KT 13/00 A3009 RMK A01 T013100-0  RH  041%=      5-min Rain = 0
KGU1 140311Z 24006KT 13/00 A3009 RMK A01 T013100-0  RH  041%=      5-min Rain = 0
KGU1 140312Z 22005KT 13/00 A3008 RMK A01 T01310000  RH  041%=      5-min Rain = 0
KGU1 140313Z 25006KT 13/00 A3008 RMK A01 T01300002  RH  042%=      5-min Rain = 0
KGU1 140314Z 27006KT 13/00 A3009 RMK A01 T01300002  RH  042%=      5-min Rain = 0
KGU1 140315Z 25006KT 13/00 A3009 RMK A01 T01290002  RH  042%=      5-min Rain = 0
KGU1 140316Z 25008KT 13/00 A3009 RMK A01 T01290002  RH  042%=      5-min Rain = 0
KGU1 140317Z 25007KT 13/00 A3008 RMK A01 T01300001  RH  042%=      5-min Rain = 0
KGU1 140318Z 29008KT 13/00 A3009 RMK A01 T01310002  RH  042%=      5-min Rain = 0
KGU1 140319Z 27010KT 13/00 A3009 RMK A01 T01300002  RH  042%=      5-min Rain = 0
KGU1 140320Z 26011KT 13/00 A3008 RMK A01 T01300001  RH  042%=      5-min Rain = 0
KGU1 140321Z 28011KT 13/00 A3008 RMK A01 T01310000  RH  041%=      5-min Rain = 0
KGU1 140322Z 28008KT 13/00 A3008 RMK A01 T01310001  RH  041%=      5-min Rain = 0
KGU1 140323Z 28009KT 13/00 A3008 RMK A01 T01290002  RH  042%=      5-min Rain = 0
KGU1 140324Z 28008KT 13/00 A3009 RMK A01 T01280002  RH  042%=      5-min Rain = 0
KGU1 140325Z 28009KT 13/00 A3009 RMK A01 T01280001  RH  042%=      5-min Rain = 0
KGU1 140326Z 29014KT 13/00 A3009 RMK A01 T01290001  RH  042%=      5-min Rain = 0
KGU1 140327Z 28010KT 13/00 A3009 RMK A01 T01310001  RH  042%=      5-min Rain = 0
KGU1 140328Z 28013KT 13/00 A3008 RMK A01 T01300002  RH  042%=      5-min Rain = 0
KGU1 140329Z 27012KT 13/00 A3008 RMK A01 T01310002  RH  042%=      5-min Rain = 0
KGU1 140330Z 27010KT 13/00 A3008 RMK A01 T01310003  RH  042%=      5-min Rain = 0
KGU1 140331Z 27011KT 13/00 A3008 RMK A01 T01300003  RH  042%=      5-min Rain = 0
KGU1 140332Z 29011KT 13/00 A3008 RMK A01 T01300004  RH  042%=      5-min Rain = 0
KGU1 140333Z 28013KT 13/00 A3008 RMK A01 T01300003  RH  042%=      5-min Rain = 0
KGU1 140334Z 28012KT 13/00 A3008 RMK A01 T01300004  RH  043%=      5-min Rain = 0
KGU1 140335Z 29009KT 13/00 A3008 RMK A01 T01290004  RH  043%=      5-min Rain = 0
KGU1 140336Z 28012KT 13/01 A3008 RMK A01 T01280005  RH  043%=      5-min Rain = 0
KGU1 140337Z 29010KT 13/01 A3008 RMK A01 T01280005  RH  043%=      5-min Rain = 0
KGU1 140338Z 28011G18KT 13/01 A3008 RMK A01 T01280005  RH  043%=      5-min Rain = 0
KGU1 140339Z 28012KT 13/00 A3008 RMK A01 T01280004  RH  043%=      5-min Rain = 0
KGU1 140340Z 28011KT 13/01 A3008 RMK A01 T01280005  RH  043%=      5-min Rain = 0
KGU1 140341Z 28010KT 13/01 A3008 RMK A01 T01280005  RH  044%=      5-min Rain = 0
KGU1 140342Z 29009KT 13/01 A3008 RMK A01 T01260005  RH  044%=      5-min Rain = 0
KGU1 140343Z 29011KT 13/01 A3008 RMK A01 T01260005  RH  044%=      5-min Rain = 0
KGU1 140344Z 28010KT 13/01 A3008 RMK A01 T01260005  RH  044%=      5-min Rain = 0
KGU1 140345Z 28011KT 13/01 A3008 RMK A01 T01270005  RH  044%=      5-min Rain = 0
KGU1 140346Z 26010KT 13/00 A3008 RMK A01 T01280003  RH  043%=      5-min Rain = 0
KGU1 140347Z 28010KT 13/00 A3008 RMK A01 T01290003  RH  042%=      5-min Rain = 0
KGU1 140348Z 28010KT 13/00 A3008 RMK A01 T01290002  RH  042%=      5-min Rain = 0
KGU1 140349Z 28011KT 13/00 A3008 RMK A01 T01300003  RH  042%=      5-min Rain = 0
KGU1 140350Z 29012KT 13/00 A3008 RMK A01 T01300003  RH  042%=      5-min Rain = 0
KGU1 140351Z 28009KT 13/00 A3008 RMK A01 T01300002  RH  042%=      5-min Rain = 0
KGU1 140352Z 27009KT 13/00 A3007 RMK A01 T01300002  RH  042%=      5-min Rain = 0
KGU1 140353Z 28010KT 13/00 A3008 RMK A01 T01300001  RH  041%=      5-min Rain = 0
KGU1 140354Z 28010G15KT 13/00 A3008 RMK A01 T01310001  RH  041%=      5-min Rain = 0
KGU1 140355Z 29009G14KT 13/00 A3008 RMK A01 T01300002  RH  042%=      5-min Rain = 0
KGU1 140356Z 28010KT 13/00 A3007 RMK A01 T01290002  RH  042%=      5-min Rain = 0
KGU1 140357Z 29010KT 13/00 A3007 RMK A01 T01290002  RH  042%=      5-min Rain = 0
KGU1 140358Z 29009KT 13/00 A3007 RMK A01 T01290002  RH  042%=      5-min Rain = 0
KGU1 140359Z 29009KT 13/00 A3007 RMK A01 T01290003  RH  042%=      5-min Rain = 0
KGU1 140400Z 29009KT 13/00 A3007 RMK A01 T01280002  RH  042%=      5-min Rain = 0
KGU1 140401Z 29010KT 13/00 A3007 RMK A01 T01280002  RH  042%=      5-min Rain = 0
KGU1 140402Z 28011KT 13/00 A3007 RMK A01 T01300000  RH  041%=      5-min Rain = 0
KGU1 140403Z 28011KT 13/00 A3007 RMK A01 T01310000  RH  041%=      5-min Rain = 0
KGU1 140404Z 27011KT 13/M00 A3007 RMK A01 T01321002  RH  040%=      5-min Rain = 0
KGU1 140405Z 28008KT 13/M00 A3007 RMK A01 T01331002  RH  040%=      5-min Rain = 0
KGU1 140406Z 28009KT 13/M00 A3007 RMK A01 T01331002  RH  040%=      5-min Rain = 0
KGU1 140407Z 29010KT 13/M00 A3007 RMK A01 T01331002  RH  040%=      5-min Rain = 0
KGU1 140408Z 29008KT 13/M00 A3007 RMK A01 T01321001  RH  040%=      5-min Rain = 0
KGU1 140409Z 28008KT 13/M00 A3007 RMK A01 T01311001  RH  041%=      5-min Rain = 0
KGU1 140410Z 30007KT 13/M00 A3007 RMK A01 T01311001  RH  041%=      5-min Rain = 0
KGU1 140411Z 30010KT 13/M00 A3007 RMK A01 T01301002  RH  041%=      5-min Rain = 0
KGU1 140412Z 28010KT 13/M00 A3007 RMK A01 T01321002  RH  040%=      5-min Rain = 0
KGU1 140413Z 28011KT 13/M00 A3007 RMK A01 T01321003  RH  040%=      5-min Rain = 0
KGU1 140414Z 28010KT 13/M00 A3007 RMK A01 T01341003  RH  040%=      5-min Rain = 0
KGU1 140415Z 28010KT 13/M00 A3007 RMK A01 T01341004  RH  039%=      5-min Rain = 0
KGU1 140416Z 27011KT 14/M01 A3007 RMK A01 T01351005  RH  039%=      5-min Rain = 0
KGU1 140417Z 29010KT 14/M00 A3007 RMK A01 T01361004  RH  039%=      5-min Rain = 0
KGU1 140418Z 29011KT 14/M01 A3007 RMK A01 T01361005  RH  038%=      5-min Rain = 0
KGU1 140419Z 27012KT 14/M01 A3007 RMK A01 T01371006  RH  038%=      5-min Rain = 0
KGU1 140420Z 28009KT 14/M01 A3007 RMK A01 T01381006  RH  038%=      5-min Rain = 0
KGU1 140421Z 28013KT 14/M01 A3007 RMK A01 T01371006  RH  038%=      5-min Rain = 0
KGU1 140422Z 29013KT 14/M01 A3007 RMK A01 T01381006  RH  038%=      5-min Rain = 0
KGU1 140423Z 28012KT 14/M01 A3007 RMK A01 T01391006  RH  037%=      5-min Rain = 0
KGU1 140424Z 28010KT 14/M01 A3007 RMK A01 T01391007  RH  037%=      5-min Rain = 0
KGU1 140425Z 28012G17KT 14/M01 A3007 RMK A01 T01391006  RH  037%=      5-min Rain = 0
KGU1 140426Z 30008KT 14/M01 A3007 RMK A01 T01381006  RH  038%=      5-min Rain = 0
KGU1 140427Z 31007KT 14/M00 A3007 RMK A01 T01351001  RH  040%=      5-min Rain = 0
KGU1 140428Z 29009KT 13/M01 A3007 RMK A01 T01341006  RH  039%=      5-min Rain = 0
KGU1 140429Z 28010KT 14/M01 A3007 RMK A01 T01361006  RH  038%=      5-min Rain = 0
KGU1 140430Z 29009KT 14/M01 A3007 RMK A01 T01371006  RH  038%=      5-min Rain = 0
KGU1 140431Z 30009KT 14/M01 A3007 RMK A01 T01381007  RH  037%=      5-min Rain = 0
KGU1 140432Z 30007KT 14/M01 A3007 RMK A01 T01381006  RH  037%=      5-min Rain = 0
KGU1 140433Z 29007KT 14/M01 A3007 RMK A01 T01371006  RH  038%=      5-min Rain = 0
KGU1 140434Z 31005G10KT 14/M01 A3007 RMK A01 T01371005  RH  038%=      5-min Rain = 0
KGU1 140435Z 30007KT 14/M01 A3007 RMK A01 T01351006  RH  038%=      5-min Rain = 0
KGU1 140436Z 34005KT 13/M00 A3007 RMK A01 T01331001  RH  040%=      5-min Rain = 0
KGU1 140437Z 01005KT 12/01 A3007 RMK A01 T01230012  RH  047%=      5-min Rain = 0
KGU1 140438Z 00005KT 11/01 A3007 RMK A01 T01120013  RH  051%=      5-min Rain = 0
KGU1 140439Z 35005KT 11/01 A3007 RMK A01 T01060014  RH  054%=      5-min Rain = 0
KGU1 140440Z 36004KT 10/02 A3007 RMK A01 T01020015  RH  055%=      5-min Rain = 0
KGU1 140441Z 36003KT 10/02 A3007 RMK A01 T01010015  RH  056%=      5-min Rain = 0
KGU1 140442Z 29003KT 10/01 A3007 RMK A01 T00990014  RH  056%=      5-min Rain = 0
KGU1 140443Z 25011G17KT 10/01 A3007 RMK A01 T01010007  RH  053%=      5-min Rain = 0
KGU1 140444Z 27014KT 12/M00 A3006 RMK A01 T01151004  RH  044%=      5-min Rain = 0
KGU1 140445Z 26013G18KT 13/M01 A3006 RMK A01 T01271007  RH  040%=      5-min Rain = 0
KGU1 140446Z 27013KT 13/M01 A3006 RMK A01 T01331009  RH  038%=      5-min Rain = 0
KGU1 140447Z 27009KT 14/M01 A3006 RMK A01 T01361008  RH  038%=      5-min Rain = 0
KGU1 140448Z 27014KT 14/M01 A3006 RMK A01 T01351008  RH  037%=      5-min Rain = 0
KGU1 140449Z 27014KT 14/M01 A3006 RMK A01 T01361009  RH  037%=      5-min Rain = 0
KGU1 140450Z 26011KT 14/M01 A3006 RMK A01 T01371009  RH  037%=      5-min Rain = 0
KGU1 140451Z 26012G19KT 14/M01 A3006 RMK A01 T01371008  RH  037%=      5-min Rain = 0
KGU1 140452Z 26013G19KT 14/M01 A3006 RMK A01 T01361008  RH  037%=      5-min Rain = 0
KGU1 140453Z 28016KT 14/M01 A3006 RMK A01 T01361007  RH  038%=      5-min Rain = 0
KGU1 140454Z 28016G25KT 14/M01 A3006 RMK A01 T01361005  RH  038%=      5-min Rain = 0
KGU1 140455Z 28022KT 14/M01 A3006 RMK A01 T01361005  RH  038%=      5-min Rain = 0
KGU1 140456Z 26020G26KT 14/M00 A3006 RMK A01 T01351003  RH  039%=      5-min Rain = 0
KGU1 140457Z 26018G25KT 14/M00 A3006 RMK A01 T01351004  RH  039%=      5-min Rain = 0
KGU1 140458Z 26018G24KT 14/M00 A3006 RMK A01 T01351004  RH  039%=      5-min Rain = 0
KGU1 140459Z 28016G23KT 13/M00 A3006 RMK A01 T01341004  RH  039%=      5-min Rain = 0
KGU1 140500Z 28013KT 13/M00 A3006 RMK A01 T01331004  RH  039%=      5-min Rain = 0
KGU1 140501Z 28017G22KT 13/M00 A3006 RMK A01 T01321004  RH  040%=      5-min Rain = 0
KGU1 140502Z 27018KT 13/M00 A3006 RMK A01 T01311004  RH  040%=      5-min Rain = 0
KGU1 140503Z 27021KT 13/M00 A3006 RMK A01 T01321004  RH  040%=      5-min Rain = 0
KGU1 140504Z 27020G28KT 13/M00 A3006 RMK A01 T01321004  RH  040%=      5-min Rain = 0
KGU1 140505Z 27015KT 13/M00 A3006 RMK A01 T01321002  RH  040%=      5-min Rain = 0
KGU1 140506Z 28015KT 13/M00 A3006 RMK A01 T01301002  RH  041%=      5-min Rain = 0
KGU1 140507Z 28017G24KT 13/M00 A3006 RMK A01 T01291003  RH  040%=      5-min Rain = 0
KGU1 140508Z 28017G24KT 13/M00 A3006 RMK A01 T01301004  RH  040%=      5-min Rain = 0
KGU1 140509Z 27016KT 13/M00 A3006 RMK A01 T01301004  RH  040%=      5-min Rain = 0
KGU1 140510Z 28014KT 13/M00 A3006 RMK A01 T01301003  RH  040%=      5-min Rain = 0
KGU1 140511Z 28015KT 13/M00 A3006 RMK A01 T01291004  RH  040%=      5-min Rain = 0
KGU1 140512Z 28015KT 13/M00 A3006 RMK A01 T01301003  RH  040%=      5-min Rain = 0
KGU1 140513Z 27015G20KT 13/M00 A3005 RMK A01 T01291003  RH  041%=      5-min Rain = 0
KGU1 140514Z 28018KT 13/M00 A3005 RMK A01 T01291003  RH  041%=      5-min Rain = 0
KGU1 140515Z 28018KT 13/M00 A3006 RMK A01 T01291004  RH  040%=      5-min Rain = 0
KGU1 140516Z 28017KT 13/M01 A3005 RMK A01 T01291005  RH  040%=      5-min Rain = 0
KGU1 140517Z 28015KT 13/M00 A3006 RMK A01 T01291004  RH  040%=      5-min Rain = 0
KGU1 140518Z 27018G23KT 13/M01 A3005 RMK A01 T01291005  RH  040%=      5-min Rain = 0
KGU1 140519Z 27020G28KT 13/M01 A3005 RMK A01 T01301005  RH  040%=      5-min Rain = 0
KGU1 140520Z 28018G24KT 13/M01 A3005 RMK A01 T01301007  RH  039%=      5-min Rain = 0
KGU1 140521Z 27021KT 13/M01 A3005 RMK A01 T01311009  RH  038%=      5-min Rain = 0
KGU1 140522Z 28018G23KT 13/M01 A3005 RMK A01 T01321009  RH  038%=      5-min Rain = 0
KGU1 140523Z 27015KT 13/M01 A3005 RMK A01 T01311009  RH  038%=      5-min Rain = 0
KGU1 140524Z 28015G22KT 13/M01 A3005 RMK A01 T01301009  RH  039%=      5-min Rain = 0
KGU1 140525Z 27015KT 13/M01 A3005 RMK A01 T01301010  RH  038%=      5-min Rain = 0
KGU1 140526Z 26018G24KT 13/M01 A3005 RMK A01 T01301010  RH  038%=      5-min Rain = 0
KGU1 140527Z 27019G26KT 13/M01 A3005 RMK A01 T01311010  RH  038%=      5-min Rain = 0
KGU1 140528Z 27017G22KT 13/M01 A3005 RMK A01 T01321011  RH  038%=      5-min Rain = 0
KGU1 140529Z 27018KT 13/M01 A3005 RMK A01 T01311011  RH  038%=      5-min Rain = 0
KGU1 140530Z 27017KT 13/M01 A3005 RMK A01 T01311009  RH  038%=      5-min Rain = 0
KGU1 140531Z 27020KT 13/M01 A3004 RMK A01 T01311011  RH  038%=      5-min Rain = 0
KGU1 140532Z 26022G28KT 13/M01 A3004 RMK A01 T01321011  RH  037%=      5-min Rain = 0
KGU1 140533Z 27019KT 13/M01 A3004 RMK A01 T01331012  RH  037%=      5-min Rain = 0
KGU1 140534Z 27020G25KT 13/M01 A3004 RMK A01 T01331012  RH  037%=      5-min Rain = 0
KGU1 140535Z 27020G26KT 13/M01 A3004 RMK A01 T01331013  RH  037%=      5-min Rain = 0
KGU1 140536Z 27019G28KT 13/M01 A3004 RMK A01 T01331013  RH  037%=      5-min Rain = 0
KGU1 140537Z 28018G23KT 13/M01 A3004 RMK A01 T01331014  RH  036%=      5-min Rain = 0
KGU1 140538Z 27018G23KT 13/M01 A3004 RMK A01 T01331014  RH  036%=      5-min Rain = 0
KGU1 140539Z 27021G29KT 13/M02 A3004 RMK A01 T01341015  RH  036%=      5-min Rain = 0
KGU1 140540Z 27019KT 13/M01 A3004 RMK A01 T01341014  RH  036%=      5-min Rain = 0
KGU1 140541Z 28021G26KT 13/M01 A3004 RMK A01 T01341014  RH  036%=      5-min Rain = 0
KGU1 140542Z 27019KT 13/M01 A3004 RMK A01 T01341014  RH  036%=      5-min Rain = 0
KGU1 140543Z 27018KT 13/M02 A3004 RMK A01 T01341015  RH  036%=      5-min Rain = 0
KGU1 140544Z 26018G23KT 13/M02 A3003 RMK A01 T01341016  RH  036%=      5-min Rain = 0
KGU1 140545Z 27021KT 14/M02 A3003 RMK A01 T01351018  RH  035%=      5-min Rain = 0
KGU1 140546Z 28020G26KT 14/M02 A3003 RMK A01 T01361018  RH  035%=      5-min Rain = 0
KGU1 140547Z 27024KT 14/M02 A3003 RMK A01 T01371019  RH  034%=      5-min Rain = 0
KGU1 140548Z 27022KT 14/M02 A3003 RMK A01 T01381020  RH  034%=      5-min Rain = 0
KGU1 140549Z 28019G24KT 14/M02 A3004 RMK A01 T01381020  RH  034%=      5-min Rain = 0
KGU1 140550Z 27018G26KT 14/M02 A3003 RMK A01 T01371021  RH  034%=      5-min Rain = 0
KGU1 140551Z 27020KT 14/M02 A3003 RMK A01 T01381023  RH  033%=      5-min Rain = 0
KGU1 140552Z 28021KT 14/M02 A3003 RMK A01 T01391023  RH  033%=      5-min Rain = 0
KGU1 140553Z 27020KT 14/M02 A3003 RMK A01 T01391022  RH  033%=      5-min Rain = 0
KGU1 140554Z 27020G26KT 14/M02 A3003 RMK A01 T01381022  RH  033%=      5-min Rain = 0
KGU1 140555Z 27020KT 14/M02 A3003 RMK A01 T01391023  RH  033%=      5-min Rain = 0
KGU1 140556Z 27021G30KT 14/M02 A3003 RMK A01 T01391023  RH  033%=      5-min Rain = 0
KGU1 140557Z 27022KT 14/M02 A3003 RMK A01 T01391022  RH  033%=      5-min Rain = 0
KGU1 140558Z 27025G32KT 14/M02 A3003 RMK A01 T01391022  RH  033%=      5-min Rain = 0
KGU1 140559Z 26022G28KT 14/M02 A3003 RMK A01 T01401020  RH  033%=      5-min Rain = 0

Page generated in 0.0703 seconds.